<?xml version="1.0" encoding="UTF-8" standalone="no" ?>
<gpx xmlns="http://www.topografix.com/GPX/1/1" xmlns:xsi="http://www.w3.org/2001/XMLSchema-instance" xsi:schemaLocation="http://www.topografix.com/GPX/1/1 http://www.topografix.com/GPX/1/1/gpx.xsd" version="1.1" creator="VisuGPX - https://www.visugpx.com">
  <metadata>
    <name>3 croix depuis stgilles </name>
    <desc><![CDATA[bonne reprise pas très difficile pour des sportifs  entrainés. ]]></desc>
  </metadata>
  <trk>
    <name><![CDATA[3 croix2]]></name>
    <desc><![CDATA[À partir de la Trace Active]]></desc>
    <trkseg>
      <trkpt lat="46.87663" lon="4.66735">
        <ele>256.097656</ele>
        <time>2012-05-06T13:40:03Z</time>
      </trkpt>
      <trkpt lat="46.87655" lon="4.66723">
        <ele>264</ele>
        <time>2012-05-06T13:41:10Z</time>
      </trkpt>
      <trkpt lat="46.87645" lon="4.66718">
        <ele>263.097656</ele>
        <time>2012-05-06T13:41:16Z</time>
      </trkpt>
      <trkpt lat="46.87617" lon="4.66702">
        <ele>259.796875</ele>
        <time>2012-05-06T13:41:26Z</time>
      </trkpt>
      <trkpt lat="46.87607" lon="4.66689">
        <ele>259.199219</ele>
        <time>2012-05-06T13:41:29Z</time>
      </trkpt>
      <trkpt lat="46.87596" lon="4.66681">
        <ele>260</ele>
        <time>2012-05-06T13:41:32Z</time>
      </trkpt>
      <trkpt lat="46.87578" lon="4.66671">
        <ele>262.5</ele>
        <time>2012-05-06T13:41:38Z</time>
      </trkpt>
      <trkpt lat="46.87537" lon="4.66654">
        <ele>270.097656</ele>
        <time>2012-05-06T13:41:54Z</time>
      </trkpt>
      <trkpt lat="46.87527" lon="4.66648">
        <ele>271.699219</ele>
        <time>2012-05-06T13:41:58Z</time>
      </trkpt>
      <trkpt lat="46.87498" lon="4.66629">
        <ele>275.699219</ele>
        <time>2012-05-06T13:42:10Z</time>
      </trkpt>
      <trkpt lat="46.87488" lon="4.66625">
        <ele>276.898438</ele>
        <time>2012-05-06T13:42:14Z</time>
      </trkpt>
      <trkpt lat="46.8748" lon="4.66617">
        <ele>277.898438</ele>
        <time>2012-05-06T13:42:18Z</time>
      </trkpt>
      <trkpt lat="46.87454" lon="4.6659">
        <ele>280.597656</ele>
        <time>2012-05-06T13:42:30Z</time>
      </trkpt>
      <trkpt lat="46.87444" lon="4.66585">
        <ele>280.796875</ele>
        <time>2012-05-06T13:42:34Z</time>
      </trkpt>
      <trkpt lat="46.87435" lon="4.66582">
        <ele>280</ele>
        <time>2012-05-06T13:42:38Z</time>
      </trkpt>
      <trkpt lat="46.87425" lon="4.66579">
        <ele>280.398438</ele>
        <time>2012-05-06T13:42:42Z</time>
      </trkpt>
      <trkpt lat="46.87415" lon="4.66577">
        <ele>281.699219</ele>
        <time>2012-05-06T13:42:46Z</time>
      </trkpt>
      <trkpt lat="46.87407" lon="4.66585">
        <ele>281.898438</ele>
        <time>2012-05-06T13:42:50Z</time>
      </trkpt>
      <trkpt lat="46.87406" lon="4.66601">
        <ele>282</ele>
        <time>2012-05-06T13:42:55Z</time>
      </trkpt>
      <trkpt lat="46.87405" lon="4.66614">
        <ele>282.296875</ele>
        <time>2012-05-06T13:42:59Z</time>
      </trkpt>
      <trkpt lat="46.87406" lon="4.6663">
        <ele>282.398438</ele>
        <time>2012-05-06T13:43:04Z</time>
      </trkpt>
      <trkpt lat="46.87407" lon="4.66646">
        <ele>282.699219</ele>
        <time>2012-05-06T13:43:09Z</time>
      </trkpt>
      <trkpt lat="46.87412" lon="4.6669">
        <ele>286.597656</ele>
        <time>2012-05-06T13:43:24Z</time>
      </trkpt>
      <trkpt lat="46.87411" lon="4.66704">
        <ele>288.796875</ele>
        <time>2012-05-06T13:43:29Z</time>
      </trkpt>
      <trkpt lat="46.87409" lon="4.66719">
        <ele>291.296875</ele>
        <time>2012-05-06T13:43:34Z</time>
      </trkpt>
      <trkpt lat="46.87405" lon="4.66731">
        <ele>294</ele>
        <time>2012-05-06T13:43:39Z</time>
      </trkpt>
      <trkpt lat="46.87397" lon="4.6674">
        <ele>296.5</ele>
        <time>2012-05-06T13:43:44Z</time>
      </trkpt>
      <trkpt lat="46.87389" lon="4.66749">
        <ele>298.398438</ele>
        <time>2012-05-06T13:43:49Z</time>
      </trkpt>
      <trkpt lat="46.8738" lon="4.66754">
        <ele>300.097656</ele>
        <time>2012-05-06T13:43:53Z</time>
      </trkpt>
      <trkpt lat="46.87372" lon="4.66762">
        <ele>301.398438</ele>
        <time>2012-05-06T13:43:58Z</time>
      </trkpt>
      <trkpt lat="46.87364" lon="4.6677">
        <ele>302.5</ele>
        <time>2012-05-06T13:44:03Z</time>
      </trkpt>
      <trkpt lat="46.8734" lon="4.66797">
        <ele>304.597656</ele>
        <time>2012-05-06T13:44:20Z</time>
      </trkpt>
      <trkpt lat="46.87333" lon="4.66806">
        <ele>305.199219</ele>
        <time>2012-05-06T13:44:25Z</time>
      </trkpt>
      <trkpt lat="46.87326" lon="4.66818">
        <ele>305.597656</ele>
        <time>2012-05-06T13:44:30Z</time>
      </trkpt>
      <trkpt lat="46.8732" lon="4.66831">
        <ele>306</ele>
        <time>2012-05-06T13:44:35Z</time>
      </trkpt>
      <trkpt lat="46.87315" lon="4.66846">
        <ele>306.296875</ele>
        <time>2012-05-06T13:44:40Z</time>
      </trkpt>
      <trkpt lat="46.87314" lon="4.6686">
        <ele>306.5</ele>
        <time>2012-05-06T13:44:44Z</time>
      </trkpt>
      <trkpt lat="46.87314" lon="4.66876">
        <ele>306.699219</ele>
        <time>2012-05-06T13:44:49Z</time>
      </trkpt>
      <trkpt lat="46.87316" lon="4.66904">
        <ele>307.296875</ele>
        <time>2012-05-06T13:44:57Z</time>
      </trkpt>
      <trkpt lat="46.87315" lon="4.6692">
        <ele>307.597656</ele>
        <time>2012-05-06T13:45:01Z</time>
      </trkpt>
      <trkpt lat="46.87311" lon="4.66935">
        <ele>308</ele>
        <time>2012-05-06T13:45:05Z</time>
      </trkpt>
      <trkpt lat="46.87306" lon="4.66948">
        <ele>308.199219</ele>
        <time>2012-05-06T13:45:09Z</time>
      </trkpt>
      <trkpt lat="46.87275" lon="4.67023">
        <ele>310.5</ele>
        <time>2012-05-06T13:45:29Z</time>
      </trkpt>
      <trkpt lat="46.87242" lon="4.67094">
        <ele>316.097656</ele>
        <time>2012-05-06T13:45:51Z</time>
      </trkpt>
      <trkpt lat="46.87211" lon="4.6715">
        <ele>319.199219</ele>
        <time>2012-05-06T13:46:11Z</time>
      </trkpt>
      <trkpt lat="46.87206" lon="4.67163">
        <ele>319.796875</ele>
        <time>2012-05-06T13:46:15Z</time>
      </trkpt>
      <trkpt lat="46.87204" lon="4.67176">
        <ele>320.296875</ele>
        <time>2012-05-06T13:46:19Z</time>
      </trkpt>
      <trkpt lat="46.87189" lon="4.67242">
        <ele>321.199219</ele>
        <time>2012-05-06T13:46:39Z</time>
      </trkpt>
      <trkpt lat="46.87185" lon="4.67254">
        <ele>322</ele>
        <time>2012-05-06T13:46:43Z</time>
      </trkpt>
      <trkpt lat="46.8718" lon="4.67267">
        <ele>322.796875</ele>
        <time>2012-05-06T13:46:47Z</time>
      </trkpt>
      <trkpt lat="46.87175" lon="4.67278">
        <ele>323.097656</ele>
        <time>2012-05-06T13:46:51Z</time>
      </trkpt>
      <trkpt lat="46.87159" lon="4.67312">
        <ele>322.796875</ele>
        <time>2012-05-06T13:47:03Z</time>
      </trkpt>
      <trkpt lat="46.87154" lon="4.67324">
        <ele>323.296875</ele>
        <time>2012-05-06T13:47:07Z</time>
      </trkpt>
      <trkpt lat="46.87151" lon="4.67337">
        <ele>323.796875</ele>
        <time>2012-05-06T13:47:11Z</time>
      </trkpt>
      <trkpt lat="46.87147" lon="4.67352">
        <ele>324.796875</ele>
        <time>2012-05-06T13:47:16Z</time>
      </trkpt>
      <trkpt lat="46.87145" lon="4.67368">
        <ele>326.296875</ele>
        <time>2012-05-06T13:47:21Z</time>
      </trkpt>
      <trkpt lat="46.87138" lon="4.67412">
        <ele>331.199219</ele>
        <time>2012-05-06T13:47:36Z</time>
      </trkpt>
      <trkpt lat="46.87134" lon="4.67427">
        <ele>333.296875</ele>
        <time>2012-05-06T13:47:41Z</time>
      </trkpt>
      <trkpt lat="46.87125" lon="4.67435">
        <ele>335.398438</ele>
        <time>2012-05-06T13:47:45Z</time>
      </trkpt>
      <trkpt lat="46.87113" lon="4.67436">
        <ele>337.296875</ele>
        <time>2012-05-06T13:47:49Z</time>
      </trkpt>
      <trkpt lat="46.87102" lon="4.67439">
        <ele>339.097656</ele>
        <time>2012-05-06T13:47:53Z</time>
      </trkpt>
      <trkpt lat="46.87075" lon="4.67449">
        <ele>344.097656</ele>
        <time>2012-05-06T13:48:02Z</time>
      </trkpt>
      <trkpt lat="46.87056" lon="4.6746">
        <ele>347.199219</ele>
        <time>2012-05-06T13:48:08Z</time>
      </trkpt>
      <trkpt lat="46.87047" lon="4.67467">
        <ele>348.796875</ele>
        <time>2012-05-06T13:48:11Z</time>
      </trkpt>
      <trkpt lat="46.87039" lon="4.67475">
        <ele>350.296875</ele>
        <time>2012-05-06T13:48:14Z</time>
      </trkpt>
      <trkpt lat="46.87023" lon="4.6749">
        <ele>354.898438</ele>
        <time>2012-05-06T13:48:20Z</time>
      </trkpt>
      <trkpt lat="46.87013" lon="4.67496">
        <ele>353.898438</ele>
        <time>2012-05-06T13:49:20Z</time>
      </trkpt>
      <trkpt lat="46.87003" lon="4.67501">
        <ele>352.699219</ele>
        <time>2012-05-06T13:49:24Z</time>
      </trkpt>
      <trkpt lat="46.86994" lon="4.67506">
        <ele>351.097656</ele>
        <time>2012-05-06T13:49:26Z</time>
      </trkpt>
      <trkpt lat="46.86983" lon="4.67515">
        <ele>349.398438</ele>
        <time>2012-05-06T13:49:28Z</time>
      </trkpt>
      <trkpt lat="46.8697" lon="4.67527">
        <ele>347.296875</ele>
        <time>2012-05-06T13:49:30Z</time>
      </trkpt>
      <trkpt lat="46.86949" lon="4.67549">
        <ele>344.898438</ele>
        <time>2012-05-06T13:49:33Z</time>
      </trkpt>
      <trkpt lat="46.86942" lon="4.67558">
        <ele>343.699219</ele>
        <time>2012-05-06T13:49:34Z</time>
      </trkpt>
      <trkpt lat="46.86935" lon="4.67569">
        <ele>342.199219</ele>
        <time>2012-05-06T13:49:35Z</time>
      </trkpt>
      <trkpt lat="46.86879" lon="4.67652">
        <ele>336.796875</ele>
        <time>2012-05-06T13:49:42Z</time>
      </trkpt>
      <trkpt lat="46.86851" lon="4.67682">
        <ele>335.796875</ele>
        <time>2012-05-06T13:49:45Z</time>
      </trkpt>
      <trkpt lat="46.86823" lon="4.67707">
        <ele>335.296875</ele>
        <time>2012-05-06T13:49:48Z</time>
      </trkpt>
      <trkpt lat="46.86805" lon="4.67721">
        <ele>335.199219</ele>
        <time>2012-05-06T13:49:50Z</time>
      </trkpt>
      <trkpt lat="46.8678" lon="4.67738">
        <ele>335</ele>
        <time>2012-05-06T13:49:53Z</time>
      </trkpt>
      <trkpt lat="46.86765" lon="4.67751">
        <ele>335.296875</ele>
        <time>2012-05-06T13:49:55Z</time>
      </trkpt>
      <trkpt lat="46.86756" lon="4.6777">
        <ele>335.597656</ele>
        <time>2012-05-06T13:49:57Z</time>
      </trkpt>
      <trkpt lat="46.86752" lon="4.67789">
        <ele>335.398438</ele>
        <time>2012-05-06T13:49:59Z</time>
      </trkpt>
      <trkpt lat="46.8675" lon="4.67808">
        <ele>335</ele>
        <time>2012-05-06T13:50:01Z</time>
      </trkpt>
      <trkpt lat="46.86748" lon="4.67846">
        <ele>334</ele>
        <time>2012-05-06T13:50:05Z</time>
      </trkpt>
      <trkpt lat="46.86741" lon="4.67977">
        <ele>333.898438</ele>
        <time>2012-05-06T13:50:22Z</time>
      </trkpt>
      <trkpt lat="46.86739" lon="4.67993">
        <ele>334.296875</ele>
        <time>2012-05-06T13:50:25Z</time>
      </trkpt>
      <trkpt lat="46.86734" lon="4.68036">
        <ele>334.597656</ele>
        <time>2012-05-06T13:50:34Z</time>
      </trkpt>
      <trkpt lat="46.86734" lon="4.68049">
        <ele>334.796875</ele>
        <time>2012-05-06T13:50:37Z</time>
      </trkpt>
      <trkpt lat="46.86732" lon="4.68062">
        <ele>335</ele>
        <time>2012-05-06T13:50:40Z</time>
      </trkpt>
      <trkpt lat="46.86728" lon="4.68089">
        <ele>335.597656</ele>
        <time>2012-05-06T13:50:46Z</time>
      </trkpt>
      <trkpt lat="46.86724" lon="4.68103">
        <ele>336.097656</ele>
        <time>2012-05-06T13:50:49Z</time>
      </trkpt>
      <trkpt lat="46.86721" lon="4.68117">
        <ele>336.199219</ele>
        <time>2012-05-06T13:50:52Z</time>
      </trkpt>
      <trkpt lat="46.8672" lon="4.68132">
        <ele>336.597656</ele>
        <time>2012-05-06T13:50:55Z</time>
      </trkpt>
      <trkpt lat="46.86716" lon="4.68199">
        <ele>336.5</ele>
        <time>2012-05-06T13:51:07Z</time>
      </trkpt>
      <trkpt lat="46.86717" lon="4.68217">
        <ele>336.199219</ele>
        <time>2012-05-06T13:51:10Z</time>
      </trkpt>
      <trkpt lat="46.86721" lon="4.68249">
        <ele>335.898438</ele>
        <time>2012-05-06T13:51:15Z</time>
      </trkpt>
      <trkpt lat="46.8672" lon="4.68263">
        <ele>335.796875</ele>
        <time>2012-05-06T13:51:17Z</time>
      </trkpt>
      <trkpt lat="46.86719" lon="4.68278">
        <ele>335.398438</ele>
        <time>2012-05-06T13:51:19Z</time>
      </trkpt>
      <trkpt lat="46.86717" lon="4.68308">
        <ele>334.199219</ele>
        <time>2012-05-06T13:51:23Z</time>
      </trkpt>
      <trkpt lat="46.86719" lon="4.68322">
        <ele>333.796875</ele>
        <time>2012-05-06T13:51:26Z</time>
      </trkpt>
      <trkpt lat="46.86729" lon="4.68326">
        <ele>333.199219</ele>
        <time>2012-05-06T13:51:29Z</time>
      </trkpt>
      <trkpt lat="46.8674" lon="4.68334">
        <ele>333.398438</ele>
        <time>2012-05-06T13:51:32Z</time>
      </trkpt>
      <trkpt lat="46.86747" lon="4.68344">
        <ele>333.5</ele>
        <time>2012-05-06T13:51:34Z</time>
      </trkpt>
      <trkpt lat="46.86753" lon="4.68356">
        <ele>333</ele>
        <time>2012-05-06T13:51:36Z</time>
      </trkpt>
      <trkpt lat="46.8676" lon="4.68366">
        <ele>332.5</ele>
        <time>2012-05-06T13:51:38Z</time>
      </trkpt>
      <trkpt lat="46.86769" lon="4.68374">
        <ele>332.097656</ele>
        <time>2012-05-06T13:51:40Z</time>
      </trkpt>
      <trkpt lat="46.86777" lon="4.68381">
        <ele>331.597656</ele>
        <time>2012-05-06T13:51:42Z</time>
      </trkpt>
      <trkpt lat="46.8679" lon="4.68381">
        <ele>331.5</ele>
        <time>2012-05-06T13:51:45Z</time>
      </trkpt>
      <trkpt lat="46.86801" lon="4.6838">
        <ele>331</ele>
        <time>2012-05-06T13:51:48Z</time>
      </trkpt>
      <trkpt lat="46.86813" lon="4.68383">
        <ele>330.296875</ele>
        <time>2012-05-06T13:51:51Z</time>
      </trkpt>
      <trkpt lat="46.86821" lon="4.68388">
        <ele>329.699219</ele>
        <time>2012-05-06T13:51:53Z</time>
      </trkpt>
      <trkpt lat="46.86829" lon="4.68396">
        <ele>328.898438</ele>
        <time>2012-05-06T13:51:55Z</time>
      </trkpt>
      <trkpt lat="46.86836" lon="4.68412">
        <ele>328.398438</ele>
        <time>2012-05-06T13:51:58Z</time>
      </trkpt>
      <trkpt lat="46.86838" lon="4.68426">
        <ele>328</ele>
        <time>2012-05-06T13:52:00Z</time>
      </trkpt>
      <trkpt lat="46.86837" lon="4.6844">
        <ele>327.5</ele>
        <time>2012-05-06T13:52:02Z</time>
      </trkpt>
      <trkpt lat="46.86835" lon="4.68457">
        <ele>325.5</ele>
        <time>2012-05-06T13:52:05Z</time>
      </trkpt>
      <trkpt lat="46.86842" lon="4.68471">
        <ele>324.5</ele>
        <time>2012-05-06T13:52:09Z</time>
      </trkpt>
      <trkpt lat="46.86851" lon="4.68473">
        <ele>323.5</ele>
        <time>2012-05-06T13:52:11Z</time>
      </trkpt>
      <trkpt lat="46.86861" lon="4.68473">
        <ele>322.199219</ele>
        <time>2012-05-06T13:52:13Z</time>
      </trkpt>
      <trkpt lat="46.8701" lon="4.68469">
        <ele>329</ele>
        <time>2012-05-06T13:52:43Z</time>
      </trkpt>
      <trkpt lat="46.87032" lon="4.68465">
        <ele>331.699219</ele>
        <time>2012-05-06T13:52:51Z</time>
      </trkpt>
      <trkpt lat="46.87042" lon="4.68461">
        <ele>333.199219</ele>
        <time>2012-05-06T13:52:55Z</time>
      </trkpt>
      <trkpt lat="46.87138" lon="4.68426">
        <ele>346.796875</ele>
        <time>2012-05-06T13:53:53Z</time>
      </trkpt>
      <trkpt lat="46.87164" lon="4.68411">
        <ele>350.796875</ele>
        <time>2012-05-06T13:54:12Z</time>
      </trkpt>
      <trkpt lat="46.87191" lon="4.68396">
        <ele>354.597656</ele>
        <time>2012-05-06T13:54:30Z</time>
      </trkpt>
      <trkpt lat="46.872" lon="4.68396">
        <ele>357.097656</ele>
        <time>2012-05-06T13:54:36Z</time>
      </trkpt>
      <trkpt lat="46.87208" lon="4.68403">
        <ele>357.699219</ele>
        <time>2012-05-06T13:55:39Z</time>
      </trkpt>
      <trkpt lat="46.87218" lon="4.68409">
        <ele>358.398438</ele>
        <time>2012-05-06T13:55:46Z</time>
      </trkpt>
      <trkpt lat="46.87227" lon="4.68413">
        <ele>359.597656</ele>
        <time>2012-05-06T13:55:53Z</time>
      </trkpt>
      <trkpt lat="46.87237" lon="4.68415">
        <ele>360.296875</ele>
        <time>2012-05-06T13:56:00Z</time>
      </trkpt>
      <trkpt lat="46.87264" lon="4.68418">
        <ele>362.5</ele>
        <time>2012-05-06T13:56:18Z</time>
      </trkpt>
      <trkpt lat="46.87274" lon="4.68418">
        <ele>363.296875</ele>
        <time>2012-05-06T13:56:24Z</time>
      </trkpt>
      <trkpt lat="46.87284" lon="4.68417">
        <ele>364</ele>
        <time>2012-05-06T13:56:30Z</time>
      </trkpt>
      <trkpt lat="46.87294" lon="4.68416">
        <ele>365</ele>
        <time>2012-05-06T13:56:36Z</time>
      </trkpt>
      <trkpt lat="46.87304" lon="4.68415">
        <ele>365.699219</ele>
        <time>2012-05-06T13:56:42Z</time>
      </trkpt>
      <trkpt lat="46.87335" lon="4.68419">
        <ele>368</ele>
        <time>2012-05-06T13:57:00Z</time>
      </trkpt>
      <trkpt lat="46.87346" lon="4.6842">
        <ele>369.199219</ele>
        <time>2012-05-06T13:57:06Z</time>
      </trkpt>
      <trkpt lat="46.87355" lon="4.68419">
        <ele>370.296875</ele>
        <time>2012-05-06T13:57:12Z</time>
      </trkpt>
      <trkpt lat="46.87364" lon="4.68415">
        <ele>371.097656</ele>
        <time>2012-05-06T13:57:18Z</time>
      </trkpt>
      <trkpt lat="46.87373" lon="4.6841">
        <ele>371.796875</ele>
        <time>2012-05-06T13:57:24Z</time>
      </trkpt>
      <trkpt lat="46.87417" lon="4.68377">
        <ele>379.199219</ele>
        <time>2012-05-06T13:57:55Z</time>
      </trkpt>
      <trkpt lat="46.87426" lon="4.68375">
        <ele>381.398438</ele>
        <time>2012-05-06T13:58:01Z</time>
      </trkpt>
      <trkpt lat="46.87435" lon="4.68376">
        <ele>382.398438</ele>
        <time>2012-05-06T13:58:07Z</time>
      </trkpt>
      <trkpt lat="46.87455" lon="4.68379">
        <ele>384.398438</ele>
        <time>2012-05-06T13:58:22Z</time>
      </trkpt>
      <trkpt lat="46.87475" lon="4.6838">
        <ele>389</ele>
        <time>2012-05-06T13:58:35Z</time>
      </trkpt>
      <trkpt lat="46.87485" lon="4.68376">
        <ele>390.398438</ele>
        <time>2012-05-06T13:58:41Z</time>
      </trkpt>
      <trkpt lat="46.87506" lon="4.68371">
        <ele>393</ele>
        <time>2012-05-06T13:58:53Z</time>
      </trkpt>
      <trkpt lat="46.87515" lon="4.68365">
        <ele>412.796875</ele>
        <time>2012-05-06T13:58:59Z</time>
      </trkpt>
      <trkpt lat="46.87525" lon="4.68365">
        <ele>413.597656</ele>
        <time>2012-05-06T14:01:00Z</time>
      </trkpt>
      <trkpt lat="46.87534" lon="4.68369">
        <ele>414.097656</ele>
        <time>2012-05-06T14:01:07Z</time>
      </trkpt>
      <trkpt lat="46.87544" lon="4.68367">
        <ele>414.097656</ele>
        <time>2012-05-06T14:01:15Z</time>
      </trkpt>
      <trkpt lat="46.87554" lon="4.68369">
        <ele>413.699219</ele>
        <time>2012-05-06T14:01:23Z</time>
      </trkpt>
      <trkpt lat="46.87612" lon="4.68378">
        <ele>421.898438</ele>
        <time>2012-05-06T14:02:03Z</time>
      </trkpt>
      <trkpt lat="46.87622" lon="4.68379">
        <ele>422.5</ele>
        <time>2012-05-06T14:02:09Z</time>
      </trkpt>
      <trkpt lat="46.87632" lon="4.68377">
        <ele>422.847656</ele>
        <time>2012-05-06T14:02:14Z</time>
      </trkpt>
      <trkpt lat="46.87641" lon="4.68375">
        <ele>421.796875</ele>
        <time>2012-05-06T14:02:23Z</time>
      </trkpt>
      <trkpt lat="46.87651" lon="4.68374">
        <ele>420.796875</ele>
        <time>2012-05-06T14:02:30Z</time>
      </trkpt>
      <trkpt lat="46.8766" lon="4.68379">
        <ele>420.199219</ele>
        <time>2012-05-06T14:02:36Z</time>
      </trkpt>
      <trkpt lat="46.8767" lon="4.68382">
        <ele>419.699219</ele>
        <time>2012-05-06T14:02:42Z</time>
      </trkpt>
      <trkpt lat="46.87679" lon="4.68387">
        <ele>419.097656</ele>
        <time>2012-05-06T14:02:48Z</time>
      </trkpt>
      <trkpt lat="46.87697" lon="4.68399">
        <ele>418</ele>
        <time>2012-05-06T14:02:59Z</time>
      </trkpt>
      <trkpt lat="46.87705" lon="4.68404">
        <ele>417.5</ele>
        <time>2012-05-06T14:03:04Z</time>
      </trkpt>
      <trkpt lat="46.87782" lon="4.68436">
        <ele>418</ele>
        <time>2012-05-06T14:03:45Z</time>
      </trkpt>
      <trkpt lat="46.87792" lon="4.68438">
        <ele>417.398438</ele>
        <time>2012-05-06T14:03:49Z</time>
      </trkpt>
      <trkpt lat="46.87803" lon="4.68444">
        <ele>416.5</ele>
        <time>2012-05-06T14:03:53Z</time>
      </trkpt>
      <trkpt lat="46.87824" lon="4.68457">
        <ele>413.597656</ele>
        <time>2012-05-06T14:04:01Z</time>
      </trkpt>
      <trkpt lat="46.87835" lon="4.68461">
        <ele>414.597656</ele>
        <time>2012-05-06T14:04:05Z</time>
      </trkpt>
      <trkpt lat="46.87864" lon="4.68477">
        <ele>430</ele>
        <time>2012-05-06T14:04:16Z</time>
      </trkpt>
      <trkpt lat="46.87872" lon="4.68488">
        <ele>424</ele>
        <time>2012-05-06T14:06:50Z</time>
      </trkpt>
      <trkpt lat="46.87881" lon="4.68495">
        <ele>419.699219</ele>
        <time>2012-05-06T14:06:58Z</time>
      </trkpt>
      <trkpt lat="46.87891" lon="4.68502">
        <ele>415.699219</ele>
        <time>2012-05-06T14:07:03Z</time>
      </trkpt>
      <trkpt lat="46.87899" lon="4.6851">
        <ele>416.199219</ele>
        <time>2012-05-06T14:07:07Z</time>
      </trkpt>
      <trkpt lat="46.87897" lon="4.68524">
        <ele>413.597656</ele>
        <time>2012-05-06T14:07:21Z</time>
      </trkpt>
      <trkpt lat="46.87891" lon="4.68535">
        <ele>410.296875</ele>
        <time>2012-05-06T14:07:28Z</time>
      </trkpt>
      <trkpt lat="46.87893" lon="4.68548">
        <ele>407.699219</ele>
        <time>2012-05-06T14:07:32Z</time>
      </trkpt>
      <trkpt lat="46.87899" lon="4.68561">
        <ele>404.898438</ele>
        <time>2012-05-06T14:07:36Z</time>
      </trkpt>
      <trkpt lat="46.87906" lon="4.68573">
        <ele>401.296875</ele>
        <time>2012-05-06T14:07:40Z</time>
      </trkpt>
      <trkpt lat="46.87912" lon="4.68585">
        <ele>396.296875</ele>
        <time>2012-05-06T14:07:45Z</time>
      </trkpt>
      <trkpt lat="46.87917" lon="4.68598">
        <ele>391.898438</ele>
        <time>2012-05-06T14:07:51Z</time>
      </trkpt>
      <trkpt lat="46.87924" lon="4.68609">
        <ele>390.398438</ele>
        <time>2012-05-06T14:07:56Z</time>
      </trkpt>
      <trkpt lat="46.8793" lon="4.68621">
        <ele>391</ele>
        <time>2012-05-06T14:07:59Z</time>
      </trkpt>
      <trkpt lat="46.87934" lon="4.68634">
        <ele>391.296875</ele>
        <time>2012-05-06T14:08:02Z</time>
      </trkpt>
      <trkpt lat="46.87939" lon="4.6865">
        <ele>393.5</ele>
        <time>2012-05-06T14:08:06Z</time>
      </trkpt>
      <trkpt lat="46.87948" lon="4.68655">
        <ele>401.296875</ele>
        <time>2012-05-06T14:08:11Z</time>
      </trkpt>
      <trkpt lat="46.87958" lon="4.68658">
        <ele>404.597656</ele>
        <time>2012-05-06T14:08:23Z</time>
      </trkpt>
      <trkpt lat="46.87966" lon="4.68666">
        <ele>403.597656</ele>
        <time>2012-05-06T14:08:36Z</time>
      </trkpt>
      <trkpt lat="46.88036" lon="4.68732">
        <ele>424</ele>
        <time>2012-05-06T14:09:29Z</time>
      </trkpt>
      <trkpt lat="46.88044" lon="4.68741">
        <ele>427.5</ele>
        <time>2012-05-06T14:09:41Z</time>
      </trkpt>
      <trkpt lat="46.88052" lon="4.68747">
        <ele>427.898438</ele>
        <time>2012-05-06T14:09:52Z</time>
      </trkpt>
      <trkpt lat="46.88058" lon="4.68737">
        <ele>428.199219</ele>
        <time>2012-05-06T14:10:13Z</time>
      </trkpt>
      <trkpt lat="46.88056" lon="4.68724">
        <ele>427.796875</ele>
        <time>2012-05-06T14:10:26Z</time>
      </trkpt>
      <trkpt lat="46.88053" lon="4.6871">
        <ele>428.597656</ele>
        <time>2012-05-06T14:10:35Z</time>
      </trkpt>
      <trkpt lat="46.88048" lon="4.68698">
        <ele>429.296875</ele>
        <time>2012-05-06T14:10:49Z</time>
      </trkpt>
      <trkpt lat="46.88043" lon="4.68685">
        <ele>431</ele>
        <time>2012-05-06T14:10:56Z</time>
      </trkpt>
      <trkpt lat="46.8804" lon="4.68672">
        <ele>432.296875</ele>
        <time>2012-05-06T14:11:02Z</time>
      </trkpt>
      <trkpt lat="46.88035" lon="4.6866">
        <ele>433.5</ele>
        <time>2012-05-06T14:11:07Z</time>
      </trkpt>
      <trkpt lat="46.88024" lon="4.68636">
        <ele>434.199219</ele>
        <time>2012-05-06T14:11:18Z</time>
      </trkpt>
      <trkpt lat="46.88014" lon="4.6861">
        <ele>434.199219</ele>
        <time>2012-05-06T14:11:30Z</time>
      </trkpt>
      <trkpt lat="46.88007" lon="4.68599">
        <ele>434.898438</ele>
        <time>2012-05-06T14:11:36Z</time>
      </trkpt>
      <trkpt lat="46.87999" lon="4.6859">
        <ele>435.398438</ele>
        <time>2012-05-06T14:11:42Z</time>
      </trkpt>
      <trkpt lat="46.87992" lon="4.68579">
        <ele>435.097656</ele>
        <time>2012-05-06T14:11:48Z</time>
      </trkpt>
      <trkpt lat="46.88" lon="4.68572">
        <ele>434.597656</ele>
        <time>2012-05-06T14:12:04Z</time>
      </trkpt>
      <trkpt lat="46.88009" lon="4.68575">
        <ele>434.199219</ele>
        <time>2012-05-06T14:12:10Z</time>
      </trkpt>
      <trkpt lat="46.88019" lon="4.68579">
        <ele>434</ele>
        <time>2012-05-06T14:12:14Z</time>
      </trkpt>
      <trkpt lat="46.88029" lon="4.68584">
        <ele>434</ele>
        <time>2012-05-06T14:12:18Z</time>
      </trkpt>
      <trkpt lat="46.88039" lon="4.6859">
        <ele>434.097656</ele>
        <time>2012-05-06T14:12:22Z</time>
      </trkpt>
      <trkpt lat="46.88059" lon="4.68604">
        <ele>433.597656</ele>
        <time>2012-05-06T14:12:30Z</time>
      </trkpt>
      <trkpt lat="46.88068" lon="4.68612">
        <ele>433.398438</ele>
        <time>2012-05-06T14:12:35Z</time>
      </trkpt>
      <trkpt lat="46.88076" lon="4.6862">
        <ele>433</ele>
        <time>2012-05-06T14:12:39Z</time>
      </trkpt>
      <trkpt lat="46.88085" lon="4.68626">
        <ele>431.597656</ele>
        <time>2012-05-06T14:12:45Z</time>
      </trkpt>
      <trkpt lat="46.88095" lon="4.68631">
        <ele>431</ele>
        <time>2012-05-06T14:12:49Z</time>
      </trkpt>
      <trkpt lat="46.88105" lon="4.68634">
        <ele>430.898438</ele>
        <time>2012-05-06T14:12:52Z</time>
      </trkpt>
      <trkpt lat="46.88115" lon="4.6864">
        <ele>431</ele>
        <time>2012-05-06T14:12:55Z</time>
      </trkpt>
      <trkpt lat="46.88133" lon="4.68651">
        <ele>431.5</ele>
        <time>2012-05-06T14:13:01Z</time>
      </trkpt>
      <trkpt lat="46.8816" lon="4.68669">
        <ele>430.796875</ele>
        <time>2012-05-06T14:13:11Z</time>
      </trkpt>
      <trkpt lat="46.8817" lon="4.68673">
        <ele>429</ele>
        <time>2012-05-06T14:13:16Z</time>
      </trkpt>
      <trkpt lat="46.88178" lon="4.68678">
        <ele>428</ele>
        <time>2012-05-06T14:13:57Z</time>
      </trkpt>
      <trkpt lat="46.88188" lon="4.68686">
        <ele>427</ele>
        <time>2012-05-06T14:14:03Z</time>
      </trkpt>
      <trkpt lat="46.88196" lon="4.68696">
        <ele>426.199219</ele>
        <time>2012-05-06T14:14:06Z</time>
      </trkpt>
      <trkpt lat="46.88231" lon="4.68738">
        <ele>427.097656</ele>
        <time>2012-05-06T14:14:18Z</time>
      </trkpt>
      <trkpt lat="46.88239" lon="4.68745">
        <ele>426.796875</ele>
        <time>2012-05-06T14:14:21Z</time>
      </trkpt>
      <trkpt lat="46.88366" lon="4.68865">
        <ele>424.597656</ele>
        <time>2012-05-06T14:15:06Z</time>
      </trkpt>
      <trkpt lat="46.88373" lon="4.68873">
        <ele>425.296875</ele>
        <time>2012-05-06T14:15:09Z</time>
      </trkpt>
      <trkpt lat="46.88377" lon="4.68887">
        <ele>427.097656</ele>
        <time>2012-05-06T14:15:13Z</time>
      </trkpt>
      <trkpt lat="46.88377" lon="4.68901">
        <ele>431.199219</ele>
        <time>2012-05-06T14:15:29Z</time>
      </trkpt>
      <trkpt lat="46.88375" lon="4.68915">
        <ele>433.597656</ele>
        <time>2012-05-06T14:15:39Z</time>
      </trkpt>
      <trkpt lat="46.88375" lon="4.68928">
        <ele>433.398438</ele>
        <time>2012-05-06T14:15:49Z</time>
      </trkpt>
      <trkpt lat="46.88386" lon="4.68928">
        <ele>433.296875</ele>
        <time>2012-05-06T14:18:12Z</time>
      </trkpt>
      <trkpt lat="46.88395" lon="4.68929">
        <ele>432.199219</ele>
        <time>2012-05-06T14:18:19Z</time>
      </trkpt>
      <trkpt lat="46.88406" lon="4.68935">
        <ele>431.398438</ele>
        <time>2012-05-06T14:18:26Z</time>
      </trkpt>
      <trkpt lat="46.88415" lon="4.68939">
        <ele>430.699219</ele>
        <time>2012-05-06T14:18:29Z</time>
      </trkpt>
      <trkpt lat="46.88424" lon="4.68947">
        <ele>429.898438</ele>
        <time>2012-05-06T14:18:33Z</time>
      </trkpt>
      <trkpt lat="46.88434" lon="4.68953">
        <ele>428.296875</ele>
        <time>2012-05-06T14:18:37Z</time>
      </trkpt>
      <trkpt lat="46.88444" lon="4.68959">
        <ele>426.796875</ele>
        <time>2012-05-06T14:18:43Z</time>
      </trkpt>
      <trkpt lat="46.88452" lon="4.68967">
        <ele>425.898438</ele>
        <time>2012-05-06T14:18:46Z</time>
      </trkpt>
      <trkpt lat="46.88463" lon="4.68979">
        <ele>425.296875</ele>
        <time>2012-05-06T14:18:49Z</time>
      </trkpt>
      <trkpt lat="46.88472" lon="4.68992">
        <ele>424.199219</ele>
        <time>2012-05-06T14:18:52Z</time>
      </trkpt>
      <trkpt lat="46.88481" lon="4.69004">
        <ele>423.5</ele>
        <time>2012-05-06T14:18:55Z</time>
      </trkpt>
      <trkpt lat="46.88489" lon="4.69012">
        <ele>422.898438</ele>
        <time>2012-05-06T14:18:57Z</time>
      </trkpt>
      <trkpt lat="46.88526" lon="4.69046">
        <ele>417.5</ele>
        <time>2012-05-06T14:19:07Z</time>
      </trkpt>
      <trkpt lat="46.88536" lon="4.69052">
        <ele>415.398438</ele>
        <time>2012-05-06T14:19:09Z</time>
      </trkpt>
      <trkpt lat="46.88545" lon="4.69055">
        <ele>408</ele>
        <time>2012-05-06T14:19:13Z</time>
      </trkpt>
      <trkpt lat="46.88555" lon="4.69056">
        <ele>402.5</ele>
        <time>2012-05-06T14:19:22Z</time>
      </trkpt>
      <trkpt lat="46.88566" lon="4.69059">
        <ele>400.949219</ele>
        <time>2012-05-06T14:19:29Z</time>
      </trkpt>
      <trkpt lat="46.88574" lon="4.69063">
        <ele>401.796875</ele>
        <time>2012-05-06T14:19:40Z</time>
      </trkpt>
      <trkpt lat="46.88583" lon="4.69068">
        <ele>401.296875</ele>
        <time>2012-05-06T14:19:46Z</time>
      </trkpt>
      <trkpt lat="46.88629" lon="4.69097">
        <ele>399.699219</ele>
        <time>2012-05-06T14:19:58Z</time>
      </trkpt>
      <trkpt lat="46.88639" lon="4.69102">
        <ele>403.097656</ele>
        <time>2012-05-06T14:20:02Z</time>
      </trkpt>
      <trkpt lat="46.88659" lon="4.6911">
        <ele>402.398438</ele>
        <time>2012-05-06T14:20:30Z</time>
      </trkpt>
      <trkpt lat="46.88668" lon="4.69115">
        <ele>402</ele>
        <time>2012-05-06T14:20:33Z</time>
      </trkpt>
      <trkpt lat="46.88686" lon="4.69127">
        <ele>400.796875</ele>
        <time>2012-05-06T14:20:39Z</time>
      </trkpt>
      <trkpt lat="46.88694" lon="4.69137">
        <ele>400.296875</ele>
        <time>2012-05-06T14:20:43Z</time>
      </trkpt>
      <trkpt lat="46.88692" lon="4.69151">
        <ele>401</ele>
        <time>2012-05-06T14:20:48Z</time>
      </trkpt>
      <trkpt lat="46.88688" lon="4.69163">
        <ele>399.5</ele>
        <time>2012-05-06T14:20:54Z</time>
      </trkpt>
      <trkpt lat="46.88684" lon="4.69176">
        <ele>399.898438</ele>
        <time>2012-05-06T14:21:02Z</time>
      </trkpt>
      <trkpt lat="46.88686" lon="4.69191">
        <ele>399.796875</ele>
        <time>2012-05-06T14:21:10Z</time>
      </trkpt>
      <trkpt lat="46.88692" lon="4.69204">
        <ele>400.699219</ele>
        <time>2012-05-06T14:21:15Z</time>
      </trkpt>
      <trkpt lat="46.88717" lon="4.69252">
        <ele>402.097656</ele>
        <time>2012-05-06T14:21:33Z</time>
      </trkpt>
      <trkpt lat="46.88727" lon="4.6928">
        <ele>401.199219</ele>
        <time>2012-05-06T14:21:40Z</time>
      </trkpt>
      <trkpt lat="46.88734" lon="4.69293">
        <ele>400.398438</ele>
        <time>2012-05-06T14:21:43Z</time>
      </trkpt>
      <trkpt lat="46.88741" lon="4.69308">
        <ele>399.597656</ele>
        <time>2012-05-06T14:21:46Z</time>
      </trkpt>
      <trkpt lat="46.88748" lon="4.69324">
        <ele>398.796875</ele>
        <time>2012-05-06T14:21:49Z</time>
      </trkpt>
      <trkpt lat="46.88758" lon="4.69353">
        <ele>397.699219</ele>
        <time>2012-05-06T14:21:54Z</time>
      </trkpt>
      <trkpt lat="46.88763" lon="4.69365">
        <ele>397.296875</ele>
        <time>2012-05-06T14:21:56Z</time>
      </trkpt>
      <trkpt lat="46.88799" lon="4.69434">
        <ele>393.699219</ele>
        <time>2012-05-06T14:22:10Z</time>
      </trkpt>
      <trkpt lat="46.88807" lon="4.69446">
        <ele>393.199219</ele>
        <time>2012-05-06T14:22:13Z</time>
      </trkpt>
      <trkpt lat="46.88817" lon="4.69458">
        <ele>393</ele>
        <time>2012-05-06T14:22:16Z</time>
      </trkpt>
      <trkpt lat="46.88882" lon="4.69523">
        <ele>390</ele>
        <time>2012-05-06T14:22:33Z</time>
      </trkpt>
      <trkpt lat="46.8889" lon="4.69535">
        <ele>389.398438</ele>
        <time>2012-05-06T14:22:36Z</time>
      </trkpt>
      <trkpt lat="46.88904" lon="4.69558">
        <ele>388.296875</ele>
        <time>2012-05-06T14:22:42Z</time>
      </trkpt>
      <trkpt lat="46.88912" lon="4.69565">
        <ele>388.097656</ele>
        <time>2012-05-06T14:22:45Z</time>
      </trkpt>
      <trkpt lat="46.88922" lon="4.69569">
        <ele>387.898438</ele>
        <time>2012-05-06T14:22:48Z</time>
      </trkpt>
      <trkpt lat="46.88941" lon="4.6958">
        <ele>386.699219</ele>
        <time>2012-05-06T14:22:54Z</time>
      </trkpt>
      <trkpt lat="46.8905" lon="4.6966">
        <ele>374.296875</ele>
        <time>2012-05-06T14:23:26Z</time>
      </trkpt>
      <trkpt lat="46.89069" lon="4.69676">
        <ele>370.597656</ele>
        <time>2012-05-06T14:23:32Z</time>
      </trkpt>
      <trkpt lat="46.89116" lon="4.69707">
        <ele>362</ele>
        <time>2012-05-06T14:23:44Z</time>
      </trkpt>
      <trkpt lat="46.89127" lon="4.69712">
        <ele>359.898438</ele>
        <time>2012-05-06T14:23:47Z</time>
      </trkpt>
      <trkpt lat="46.89167" lon="4.69727">
        <ele>357.5</ele>
        <time>2012-05-06T14:23:56Z</time>
      </trkpt>
      <trkpt lat="46.89212" lon="4.69744">
        <ele>356.699219</ele>
        <time>2012-05-06T14:24:08Z</time>
      </trkpt>
      <trkpt lat="46.89224" lon="4.6975">
        <ele>357.296875</ele>
        <time>2012-05-06T14:24:26Z</time>
      </trkpt>
      <trkpt lat="46.89233" lon="4.69749">
        <ele>357.898438</ele>
        <time>2012-05-06T14:24:30Z</time>
      </trkpt>
      <trkpt lat="46.89241" lon="4.69743">
        <ele>358.097656</ele>
        <time>2012-05-06T14:24:34Z</time>
      </trkpt>
      <trkpt lat="46.89251" lon="4.69737">
        <ele>358</ele>
        <time>2012-05-06T14:24:38Z</time>
      </trkpt>
      <trkpt lat="46.8926" lon="4.69734">
        <ele>361.097656</ele>
        <time>2012-05-06T14:24:42Z</time>
      </trkpt>
      <trkpt lat="46.89268" lon="4.69725">
        <ele>360.796875</ele>
        <time>2012-05-06T14:25:30Z</time>
      </trkpt>
      <trkpt lat="46.89277" lon="4.69718">
        <ele>359.898438</ele>
        <time>2012-05-06T14:25:35Z</time>
      </trkpt>
      <trkpt lat="46.89286" lon="4.69712">
        <ele>358.796875</ele>
        <time>2012-05-06T14:25:39Z</time>
      </trkpt>
      <trkpt lat="46.89304" lon="4.69699">
        <ele>357.296875</ele>
        <time>2012-05-06T14:25:44Z</time>
      </trkpt>
      <trkpt lat="46.89398" lon="4.69625">
        <ele>345</ele>
        <time>2012-05-06T14:26:05Z</time>
      </trkpt>
      <trkpt lat="46.89408" lon="4.69619">
        <ele>341.699219</ele>
        <time>2012-05-06T14:26:08Z</time>
      </trkpt>
      <trkpt lat="46.89418" lon="4.69615">
        <ele>338.597656</ele>
        <time>2012-05-06T14:26:14Z</time>
      </trkpt>
      <trkpt lat="46.89438" lon="4.69608">
        <ele>331.898438</ele>
        <time>2012-05-06T14:26:28Z</time>
      </trkpt>
      <trkpt lat="46.89448" lon="4.69607">
        <ele>326.898438</ele>
        <time>2012-05-06T14:26:34Z</time>
      </trkpt>
      <trkpt lat="46.89454" lon="4.69597">
        <ele>322.597656</ele>
        <time>2012-05-06T14:26:44Z</time>
      </trkpt>
      <trkpt lat="46.89456" lon="4.69584">
        <ele>319.097656</ele>
        <time>2012-05-06T14:26:55Z</time>
      </trkpt>
      <trkpt lat="46.89457" lon="4.6957">
        <ele>318.5</ele>
        <time>2012-05-06T14:27:09Z</time>
      </trkpt>
      <trkpt lat="46.89455" lon="4.69557">
        <ele>316.699219</ele>
        <time>2012-05-06T14:27:17Z</time>
      </trkpt>
      <trkpt lat="46.89462" lon="4.69549">
        <ele>315.296875</ele>
        <time>2012-05-06T14:27:28Z</time>
      </trkpt>
      <trkpt lat="46.89473" lon="4.6955">
        <ele>314</ele>
        <time>2012-05-06T14:27:35Z</time>
      </trkpt>
      <trkpt lat="46.89482" lon="4.69549">
        <ele>312.199219</ele>
        <time>2012-05-06T14:27:38Z</time>
      </trkpt>
      <trkpt lat="46.89492" lon="4.69549">
        <ele>310.296875</ele>
        <time>2012-05-06T14:27:41Z</time>
      </trkpt>
      <trkpt lat="46.89502" lon="4.69546">
        <ele>309</ele>
        <time>2012-05-06T14:27:45Z</time>
      </trkpt>
      <trkpt lat="46.89512" lon="4.69543">
        <ele>306.898438</ele>
        <time>2012-05-06T14:27:48Z</time>
      </trkpt>
      <trkpt lat="46.89524" lon="4.69538">
        <ele>304.199219</ele>
        <time>2012-05-06T14:27:51Z</time>
      </trkpt>
      <trkpt lat="46.89537" lon="4.69534">
        <ele>302.597656</ele>
        <time>2012-05-06T14:27:54Z</time>
      </trkpt>
      <trkpt lat="46.89547" lon="4.69533">
        <ele>301.199219</ele>
        <time>2012-05-06T14:27:56Z</time>
      </trkpt>
      <trkpt lat="46.89559" lon="4.69535">
        <ele>300.097656</ele>
        <time>2012-05-06T14:27:58Z</time>
      </trkpt>
      <trkpt lat="46.8957" lon="4.69539">
        <ele>298.699219</ele>
        <time>2012-05-06T14:28:00Z</time>
      </trkpt>
      <trkpt lat="46.89579" lon="4.6954">
        <ele>296.699219</ele>
        <time>2012-05-06T14:28:02Z</time>
      </trkpt>
      <trkpt lat="46.89589" lon="4.69537">
        <ele>294.699219</ele>
        <time>2012-05-06T14:28:04Z</time>
      </trkpt>
      <trkpt lat="46.89597" lon="4.69532">
        <ele>292.898438</ele>
        <time>2012-05-06T14:28:06Z</time>
      </trkpt>
      <trkpt lat="46.89606" lon="4.69527">
        <ele>290.597656</ele>
        <time>2012-05-06T14:28:08Z</time>
      </trkpt>
      <trkpt lat="46.89624" lon="4.69519">
        <ele>286.296875</ele>
        <time>2012-05-06T14:28:12Z</time>
      </trkpt>
      <trkpt lat="46.89644" lon="4.69506">
        <ele>283.5</ele>
        <time>2012-05-06T14:28:16Z</time>
      </trkpt>
      <trkpt lat="46.89653" lon="4.69505">
        <ele>282.199219</ele>
        <time>2012-05-06T14:28:18Z</time>
      </trkpt>
      <trkpt lat="46.89664" lon="4.69507">
        <ele>281</ele>
        <time>2012-05-06T14:28:20Z</time>
      </trkpt>
      <trkpt lat="46.89673" lon="4.69507">
        <ele>278.5</ele>
        <time>2012-05-06T14:28:22Z</time>
      </trkpt>
      <trkpt lat="46.89686" lon="4.69501">
        <ele>277.097656</ele>
        <time>2012-05-06T14:28:25Z</time>
      </trkpt>
      <trkpt lat="46.89693" lon="4.69492">
        <ele>275.5</ele>
        <time>2012-05-06T14:28:27Z</time>
      </trkpt>
      <trkpt lat="46.897" lon="4.69479">
        <ele>273.398438</ele>
        <time>2012-05-06T14:28:29Z</time>
      </trkpt>
      <trkpt lat="46.89707" lon="4.69466">
        <ele>271.398438</ele>
        <time>2012-05-06T14:28:31Z</time>
      </trkpt>
      <trkpt lat="46.89719" lon="4.69439">
        <ele>267.5</ele>
        <time>2012-05-06T14:28:35Z</time>
      </trkpt>
      <trkpt lat="46.89724" lon="4.69427">
        <ele>266.097656</ele>
        <time>2012-05-06T14:28:37Z</time>
      </trkpt>
      <trkpt lat="46.89734" lon="4.69401">
        <ele>263.796875</ele>
        <time>2012-05-06T14:28:41Z</time>
      </trkpt>
      <trkpt lat="46.8974" lon="4.69387">
        <ele>262.796875</ele>
        <time>2012-05-06T14:28:43Z</time>
      </trkpt>
      <trkpt lat="46.8978" lon="4.69313">
        <ele>252.898438</ele>
        <time>2012-05-06T14:28:53Z</time>
      </trkpt>
      <trkpt lat="46.89847" lon="4.69154">
        <ele>237.097656</ele>
        <time>2012-05-06T14:29:09Z</time>
      </trkpt>
      <trkpt lat="46.89854" lon="4.69133">
        <ele>235.296875</ele>
        <time>2012-05-06T14:29:11Z</time>
      </trkpt>
      <trkpt lat="46.89859" lon="4.69111">
        <ele>233.398438</ele>
        <time>2012-05-06T14:29:13Z</time>
      </trkpt>
      <trkpt lat="46.89862" lon="4.69086">
        <ele>231.296875</ele>
        <time>2012-05-06T14:29:15Z</time>
      </trkpt>
      <trkpt lat="46.89871" lon="4.69028">
        <ele>227.5</ele>
        <time>2012-05-06T14:29:21Z</time>
      </trkpt>
      <trkpt lat="46.89876" lon="4.69016">
        <ele>227.398438</ele>
        <time>2012-05-06T14:29:24Z</time>
      </trkpt>
      <trkpt lat="46.89887" lon="4.69018">
        <ele>227.296875</ele>
        <time>2012-05-06T14:29:27Z</time>
      </trkpt>
      <trkpt lat="46.89898" lon="4.69025">
        <ele>227</ele>
        <time>2012-05-06T14:29:30Z</time>
      </trkpt>
      <trkpt lat="46.89935" lon="4.69046">
        <ele>225.796875</ele>
        <time>2012-05-06T14:29:38Z</time>
      </trkpt>
      <trkpt lat="46.89945" lon="4.69055">
        <ele>225.5</ele>
        <time>2012-05-06T14:29:40Z</time>
      </trkpt>
      <trkpt lat="46.90021" lon="4.69127">
        <ele>224.5</ele>
        <time>2012-05-06T14:29:52Z</time>
      </trkpt>
      <trkpt lat="46.90036" lon="4.69137">
        <ele>224.296875</ele>
        <time>2012-05-06T14:29:54Z</time>
      </trkpt>
      <trkpt lat="46.90068" lon="4.69155">
        <ele>224</ele>
        <time>2012-05-06T14:29:58Z</time>
      </trkpt>
      <trkpt lat="46.90083" lon="4.69166">
        <ele>224</ele>
        <time>2012-05-06T14:30:00Z</time>
      </trkpt>
      <trkpt lat="46.90097" lon="4.69179">
        <ele>224.097656</ele>
        <time>2012-05-06T14:30:02Z</time>
      </trkpt>
      <trkpt lat="46.90109" lon="4.69193">
        <ele>224.199219</ele>
        <time>2012-05-06T14:30:04Z</time>
      </trkpt>
      <trkpt lat="46.90133" lon="4.69225">
        <ele>224.898438</ele>
        <time>2012-05-06T14:30:08Z</time>
      </trkpt>
      <trkpt lat="46.90146" lon="4.69229">
        <ele>225.398438</ele>
        <time>2012-05-06T14:30:10Z</time>
      </trkpt>
      <trkpt lat="46.90157" lon="4.69222">
        <ele>224.898438</ele>
        <time>2012-05-06T14:30:12Z</time>
      </trkpt>
      <trkpt lat="46.90165" lon="4.69217">
        <ele>223.699219</ele>
        <time>2012-05-06T14:30:14Z</time>
      </trkpt>
      <trkpt lat="46.90174" lon="4.69227">
        <ele>222.097656</ele>
        <time>2012-05-06T14:30:16Z</time>
      </trkpt>
      <trkpt lat="46.90182" lon="4.69242">
        <ele>220.796875</ele>
        <time>2012-05-06T14:30:18Z</time>
      </trkpt>
      <trkpt lat="46.90252" lon="4.69362">
        <ele>219.199219</ele>
        <time>2012-05-06T14:30:32Z</time>
      </trkpt>
      <trkpt lat="46.90263" lon="4.69376">
        <ele>218.597656</ele>
        <time>2012-05-06T14:30:34Z</time>
      </trkpt>
      <trkpt lat="46.90275" lon="4.6939">
        <ele>218</ele>
        <time>2012-05-06T14:30:36Z</time>
      </trkpt>
      <trkpt lat="46.90287" lon="4.69402">
        <ele>217.699219</ele>
        <time>2012-05-06T14:30:38Z</time>
      </trkpt>
      <trkpt lat="46.90336" lon="4.69447">
        <ele>216.699219</ele>
        <time>2012-05-06T14:30:46Z</time>
      </trkpt>
      <trkpt lat="46.90348" lon="4.69457">
        <ele>216.199219</ele>
        <time>2012-05-06T14:30:48Z</time>
      </trkpt>
      <trkpt lat="46.90361" lon="4.69464">
        <ele>215.5</ele>
        <time>2012-05-06T14:30:50Z</time>
      </trkpt>
      <trkpt lat="46.90376" lon="4.6947">
        <ele>214.597656</ele>
        <time>2012-05-06T14:30:52Z</time>
      </trkpt>
      <trkpt lat="46.90392" lon="4.69474">
        <ele>213.796875</ele>
        <time>2012-05-06T14:30:54Z</time>
      </trkpt>
      <trkpt lat="46.90409" lon="4.69482">
        <ele>213.296875</ele>
        <time>2012-05-06T14:30:56Z</time>
      </trkpt>
      <trkpt lat="46.90418" lon="4.69488">
        <ele>213.097656</ele>
        <time>2012-05-06T14:30:57Z</time>
      </trkpt>
      <trkpt lat="46.90426" lon="4.69495">
        <ele>212.898438</ele>
        <time>2012-05-06T14:30:58Z</time>
      </trkpt>
      <trkpt lat="46.90434" lon="4.69504">
        <ele>212.898438</ele>
        <time>2012-05-06T14:30:59Z</time>
      </trkpt>
      <trkpt lat="46.90441" lon="4.69512">
        <ele>212.796875</ele>
        <time>2012-05-06T14:31:00Z</time>
      </trkpt>
      <trkpt lat="46.90454" lon="4.69531">
        <ele>212.597656</ele>
        <time>2012-05-06T14:31:02Z</time>
      </trkpt>
      <trkpt lat="46.90467" lon="4.69548">
        <ele>212.199219</ele>
        <time>2012-05-06T14:31:04Z</time>
      </trkpt>
      <trkpt lat="46.90483" lon="4.69562">
        <ele>211.898438</ele>
        <time>2012-05-06T14:31:06Z</time>
      </trkpt>
      <trkpt lat="46.90498" lon="4.69573">
        <ele>211.398438</ele>
        <time>2012-05-06T14:31:08Z</time>
      </trkpt>
      <trkpt lat="46.90515" lon="4.69577">
        <ele>211.097656</ele>
        <time>2012-05-06T14:31:10Z</time>
      </trkpt>
      <trkpt lat="46.90531" lon="4.69571">
        <ele>210.898438</ele>
        <time>2012-05-06T14:31:12Z</time>
      </trkpt>
      <trkpt lat="46.90578" lon="4.69554">
        <ele>210.296875</ele>
        <time>2012-05-06T14:31:18Z</time>
      </trkpt>
      <trkpt lat="46.90651" lon="4.69541">
        <ele>211.699219</ele>
        <time>2012-05-06T14:31:28Z</time>
      </trkpt>
      <trkpt lat="46.90663" lon="4.69535">
        <ele>212.296875</ele>
        <time>2012-05-06T14:31:30Z</time>
      </trkpt>
      <trkpt lat="46.90673" lon="4.69527">
        <ele>212.398438</ele>
        <time>2012-05-06T14:31:32Z</time>
      </trkpt>
      <trkpt lat="46.90738" lon="4.69476">
        <ele>212.597656</ele>
        <time>2012-05-06T14:31:46Z</time>
      </trkpt>
      <trkpt lat="46.9075" lon="4.69471">
        <ele>212.699219</ele>
        <time>2012-05-06T14:31:49Z</time>
      </trkpt>
      <trkpt lat="46.90759" lon="4.6947">
        <ele>212.699219</ele>
        <time>2012-05-06T14:31:52Z</time>
      </trkpt>
      <trkpt lat="46.9077" lon="4.69468">
        <ele>212.5</ele>
        <time>2012-05-06T14:31:56Z</time>
      </trkpt>
      <trkpt lat="46.90778" lon="4.69462">
        <ele>212.398438</ele>
        <time>2012-05-06T14:31:59Z</time>
      </trkpt>
      <trkpt lat="46.90775" lon="4.69447">
        <ele>212.398438</ele>
        <time>2012-05-06T14:32:03Z</time>
      </trkpt>
      <trkpt lat="46.90769" lon="4.69435">
        <ele>212.5</ele>
        <time>2012-05-06T14:32:06Z</time>
      </trkpt>
      <trkpt lat="46.90744" lon="4.69385">
        <ele>212.898438</ele>
        <time>2012-05-06T14:32:16Z</time>
      </trkpt>
      <trkpt lat="46.90726" lon="4.69337">
        <ele>213.398438</ele>
        <time>2012-05-06T14:32:24Z</time>
      </trkpt>
      <trkpt lat="46.9063" lon="4.69047">
        <ele>221.199219</ele>
        <time>2012-05-06T14:33:14Z</time>
      </trkpt>
      <trkpt lat="46.9062" lon="4.69012">
        <ele>221.5</ele>
        <time>2012-05-06T14:33:20Z</time>
      </trkpt>
      <trkpt lat="46.90601" lon="4.68935">
        <ele>221.398438</ele>
        <time>2012-05-06T14:33:32Z</time>
      </trkpt>
      <trkpt lat="46.90596" lon="4.68908">
        <ele>221.398438</ele>
        <time>2012-05-06T14:33:36Z</time>
      </trkpt>
      <trkpt lat="46.90587" lon="4.68898">
        <ele>221.597656</ele>
        <time>2012-05-06T14:33:39Z</time>
      </trkpt>
      <trkpt lat="46.90575" lon="4.6889">
        <ele>221.699219</ele>
        <time>2012-05-06T14:33:42Z</time>
      </trkpt>
      <trkpt lat="46.90569" lon="4.68872">
        <ele>221.796875</ele>
        <time>2012-05-06T14:33:45Z</time>
      </trkpt>
      <trkpt lat="46.90566" lon="4.6886">
        <ele>221.796875</ele>
        <time>2012-05-06T14:33:47Z</time>
      </trkpt>
      <trkpt lat="46.90491" lon="4.68536">
        <ele>221.199219</ele>
        <time>2012-05-06T14:34:38Z</time>
      </trkpt>
      <trkpt lat="46.90463" lon="4.6845">
        <ele>221.097656</ele>
        <time>2012-05-06T14:34:52Z</time>
      </trkpt>
      <trkpt lat="46.90448" lon="4.6841">
        <ele>223.296875</ele>
        <time>2012-05-06T14:34:58Z</time>
      </trkpt>
      <trkpt lat="46.9042" lon="4.68347">
        <ele>227.097656</ele>
        <time>2012-05-06T14:35:08Z</time>
      </trkpt>
      <trkpt lat="46.90373" lon="4.68255">
        <ele>230.199219</ele>
        <time>2012-05-06T14:35:24Z</time>
      </trkpt>
      <trkpt lat="46.90174" lon="4.67928">
        <ele>236.597656</ele>
        <time>2012-05-06T14:36:29Z</time>
      </trkpt>
      <trkpt lat="46.90154" lon="4.6788">
        <ele>237.296875</ele>
        <time>2012-05-06T14:36:38Z</time>
      </trkpt>
      <trkpt lat="46.90136" lon="4.6783">
        <ele>237.699219</ele>
        <time>2012-05-06T14:36:47Z</time>
      </trkpt>
      <trkpt lat="46.90109" lon="4.67725">
        <ele>238.796875</ele>
        <time>2012-05-06T14:37:04Z</time>
      </trkpt>
      <trkpt lat="46.901" lon="4.67681">
        <ele>238.296875</ele>
        <time>2012-05-06T14:37:11Z</time>
      </trkpt>
      <trkpt lat="46.90088" lon="4.67596">
        <ele>237.398438</ele>
        <time>2012-05-06T14:37:24Z</time>
      </trkpt>
      <trkpt lat="46.90083" lon="4.67543">
        <ele>237.796875</ele>
        <time>2012-05-06T14:37:32Z</time>
      </trkpt>
      <trkpt lat="46.90082" lon="4.67504">
        <ele>238.097656</ele>
        <time>2012-05-06T14:37:38Z</time>
      </trkpt>
      <trkpt lat="46.90083" lon="4.67485">
        <ele>238</ele>
        <time>2012-05-06T14:37:41Z</time>
      </trkpt>
      <trkpt lat="46.9009" lon="4.6732">
        <ele>234.597656</ele>
        <time>2012-05-06T14:38:08Z</time>
      </trkpt>
      <trkpt lat="46.90092" lon="4.67303">
        <ele>232.5</ele>
        <time>2012-05-06T14:38:11Z</time>
      </trkpt>
      <trkpt lat="46.90093" lon="4.67286">
        <ele>230.296875</ele>
        <time>2012-05-06T14:38:14Z</time>
      </trkpt>
      <trkpt lat="46.90104" lon="4.67147">
        <ele>238.5</ele>
        <time>2012-05-06T14:38:35Z</time>
      </trkpt>
      <trkpt lat="46.90109" lon="4.67115">
        <ele>240.097656</ele>
        <time>2012-05-06T14:38:40Z</time>
      </trkpt>
      <trkpt lat="46.90125" lon="4.67022">
        <ele>241</ele>
        <time>2012-05-06T14:38:54Z</time>
      </trkpt>
      <trkpt lat="46.90142" lon="4.66941">
        <ele>244.296875</ele>
        <time>2012-05-06T14:39:08Z</time>
      </trkpt>
      <trkpt lat="46.90155" lon="4.66888">
        <ele>246.199219</ele>
        <time>2012-05-06T14:39:17Z</time>
      </trkpt>
      <trkpt lat="46.9017" lon="4.66836">
        <ele>247.5</ele>
        <time>2012-05-06T14:39:26Z</time>
      </trkpt>
      <trkpt lat="46.90205" lon="4.66736">
        <ele>250.296875</ele>
        <time>2012-05-06T14:39:44Z</time>
      </trkpt>
      <trkpt lat="46.90248" lon="4.6664">
        <ele>252.199219</ele>
        <time>2012-05-06T14:40:01Z</time>
      </trkpt>
      <trkpt lat="46.90275" lon="4.66584">
        <ele>252.097656</ele>
        <time>2012-05-06T14:40:11Z</time>
      </trkpt>
      <trkpt lat="46.90311" lon="4.66522">
        <ele>253.199219</ele>
        <time>2012-05-06T14:40:23Z</time>
      </trkpt>
      <trkpt lat="46.90602" lon="4.66062">
        <ele>252.796875</ele>
        <time>2012-05-06T14:41:55Z</time>
      </trkpt>
      <trkpt lat="46.90639" lon="4.65994">
        <ele>253.5</ele>
        <time>2012-05-06T14:42:09Z</time>
      </trkpt>
      <trkpt lat="46.90655" lon="4.65959">
        <ele>255.296875</ele>
        <time>2012-05-06T14:42:15Z</time>
      </trkpt>
      <trkpt lat="46.90699" lon="4.65847">
        <ele>258.5</ele>
        <time>2012-05-06T14:42:33Z</time>
      </trkpt>
      <trkpt lat="46.90717" lon="4.65795">
        <ele>259.699219</ele>
        <time>2012-05-06T14:42:41Z</time>
      </trkpt>
      <trkpt lat="46.90743" lon="4.65701">
        <ele>261.398438</ele>
        <time>2012-05-06T14:42:55Z</time>
      </trkpt>
      <trkpt lat="46.90752" lon="4.6566">
        <ele>262.199219</ele>
        <time>2012-05-06T14:43:01Z</time>
      </trkpt>
      <trkpt lat="46.9077" lon="4.65559">
        <ele>265.296875</ele>
        <time>2012-05-06T14:43:15Z</time>
      </trkpt>
      <trkpt lat="46.90782" lon="4.65462">
        <ele>266.199219</ele>
        <time>2012-05-06T14:43:29Z</time>
      </trkpt>
      <trkpt lat="46.90789" lon="4.65361">
        <ele>269.398438</ele>
        <time>2012-05-06T14:43:43Z</time>
      </trkpt>
      <trkpt lat="46.90792" lon="4.65126">
        <ele>270.699219</ele>
        <time>2012-05-06T14:44:18Z</time>
      </trkpt>
      <trkpt lat="46.90801" lon="4.65076">
        <ele>261.398438</ele>
        <time>2012-05-06T14:44:22Z</time>
      </trkpt>
      <trkpt lat="46.90812" lon="4.65035">
        <ele>283.398438</ele>
        <time>2012-05-06T14:44:23Z</time>
      </trkpt>
      <trkpt lat="46.90797" lon="4.65032">
        <ele>276.296875</ele>
        <time>2012-05-06T14:44:24Z</time>
      </trkpt>
      <trkpt lat="46.90796" lon="4.65013">
        <ele>274.296875</ele>
        <time>2012-05-06T14:44:28Z</time>
      </trkpt>
      <trkpt lat="46.90797" lon="4.64955">
        <ele>271.5</ele>
        <time>2012-05-06T14:44:36Z</time>
      </trkpt>
      <trkpt lat="46.908" lon="4.64906">
        <ele>271.796875</ele>
        <time>2012-05-06T14:44:44Z</time>
      </trkpt>
      <trkpt lat="46.90805" lon="4.64871">
        <ele>270.898438</ele>
        <time>2012-05-06T14:44:50Z</time>
      </trkpt>
      <trkpt lat="46.90808" lon="4.64854">
        <ele>270.796875</ele>
        <time>2012-05-06T14:44:53Z</time>
      </trkpt>
      <trkpt lat="46.90812" lon="4.64836">
        <ele>270.398438</ele>
        <time>2012-05-06T14:44:56Z</time>
      </trkpt>
      <trkpt lat="46.90832" lon="4.64764">
        <ele>272.796875</ele>
        <time>2012-05-06T14:45:08Z</time>
      </trkpt>
      <trkpt lat="46.90845" lon="4.64728">
        <ele>274.796875</ele>
        <time>2012-05-06T14:45:14Z</time>
      </trkpt>
      <trkpt lat="46.9086" lon="4.64693">
        <ele>276.796875</ele>
        <time>2012-05-06T14:45:20Z</time>
      </trkpt>
      <trkpt lat="46.90883" lon="4.6465">
        <ele>278.398438</ele>
        <time>2012-05-06T14:45:28Z</time>
      </trkpt>
      <trkpt lat="46.90893" lon="4.64638">
        <ele>279</ele>
        <time>2012-05-06T14:45:31Z</time>
      </trkpt>
      <trkpt lat="46.90899" lon="4.64626">
        <ele>279.296875</ele>
        <time>2012-05-06T14:45:34Z</time>
      </trkpt>
      <trkpt lat="46.90905" lon="4.64616">
        <ele>279.199219</ele>
        <time>2012-05-06T14:45:37Z</time>
      </trkpt>
      <trkpt lat="46.90913" lon="4.64606">
        <ele>278.097656</ele>
        <time>2012-05-06T14:45:40Z</time>
      </trkpt>
      <trkpt lat="46.90931" lon="4.64586">
        <ele>278.398438</ele>
        <time>2012-05-06T14:45:46Z</time>
      </trkpt>
      <trkpt lat="46.90953" lon="4.64565">
        <ele>279</ele>
        <time>2012-05-06T14:45:52Z</time>
      </trkpt>
      <trkpt lat="46.90971" lon="4.64544">
        <ele>279.097656</ele>
        <time>2012-05-06T14:45:57Z</time>
      </trkpt>
      <trkpt lat="46.91196" lon="4.64296">
        <ele>281.097656</ele>
        <time>2012-05-06T14:46:55Z</time>
      </trkpt>
      <trkpt lat="46.9134" lon="4.64111">
        <ele>285.699219</ele>
        <time>2012-05-06T14:47:31Z</time>
      </trkpt>
      <trkpt lat="46.91367" lon="4.64085">
        <ele>285.898438</ele>
        <time>2012-05-06T14:47:37Z</time>
      </trkpt>
      <trkpt lat="46.91575" lon="4.63919">
        <ele>285.097656</ele>
        <time>2012-05-06T14:48:23Z</time>
      </trkpt>
      <trkpt lat="46.91602" lon="4.63902">
        <ele>284.199219</ele>
        <time>2012-05-06T14:48:29Z</time>
      </trkpt>
      <trkpt lat="46.9162" lon="4.63892">
        <ele>283.296875</ele>
        <time>2012-05-06T14:48:33Z</time>
      </trkpt>
      <trkpt lat="46.9173" lon="4.63839">
        <ele>287</ele>
        <time>2012-05-06T14:48:57Z</time>
      </trkpt>
      <trkpt lat="46.9174" lon="4.63835">
        <ele>287.199219</ele>
        <time>2012-05-06T14:48:59Z</time>
      </trkpt>
      <trkpt lat="46.91751" lon="4.63833">
        <ele>287.199219</ele>
        <time>2012-05-06T14:49:01Z</time>
      </trkpt>
      <trkpt lat="46.92046" lon="4.63758">
        <ele>296.199219</ele>
        <time>2012-05-06T14:50:04Z</time>
      </trkpt>
      <trkpt lat="46.92056" lon="4.63758">
        <ele>296</ele>
        <time>2012-05-06T14:50:07Z</time>
      </trkpt>
      <trkpt lat="46.92061" lon="4.63772">
        <ele>296.898438</ele>
        <time>2012-05-06T14:50:12Z</time>
      </trkpt>
      <trkpt lat="46.9207" lon="4.63777">
        <ele>298</ele>
        <time>2012-05-06T14:50:17Z</time>
      </trkpt>
      <trkpt lat="46.92079" lon="4.63782">
        <ele>299.199219</ele>
        <time>2012-05-06T14:50:22Z</time>
      </trkpt>
      <trkpt lat="46.92087" lon="4.63791">
        <ele>300.699219</ele>
        <time>2012-05-06T14:50:27Z</time>
      </trkpt>
      <trkpt lat="46.92096" lon="4.63799">
        <ele>302.296875</ele>
        <time>2012-05-06T14:50:32Z</time>
      </trkpt>
      <trkpt lat="46.92103" lon="4.63809">
        <ele>303.796875</ele>
        <time>2012-05-06T14:50:37Z</time>
      </trkpt>
      <trkpt lat="46.9214" lon="4.63859">
        <ele>311.5</ele>
        <time>2012-05-06T14:51:02Z</time>
      </trkpt>
      <trkpt lat="46.92146" lon="4.6387">
        <ele>313.097656</ele>
        <time>2012-05-06T14:51:07Z</time>
      </trkpt>
      <trkpt lat="46.92152" lon="4.63882">
        <ele>314.5</ele>
        <time>2012-05-06T14:51:12Z</time>
      </trkpt>
      <trkpt lat="46.92157" lon="4.63894">
        <ele>315.398438</ele>
        <time>2012-05-06T14:51:17Z</time>
      </trkpt>
      <trkpt lat="46.92162" lon="4.63907">
        <ele>316.597656</ele>
        <time>2012-05-06T14:51:22Z</time>
      </trkpt>
      <trkpt lat="46.92168" lon="4.63919">
        <ele>318</ele>
        <time>2012-05-06T14:51:27Z</time>
      </trkpt>
      <trkpt lat="46.92179" lon="4.63943">
        <ele>320</ele>
        <time>2012-05-06T14:51:37Z</time>
      </trkpt>
      <trkpt lat="46.92213" lon="4.64016">
        <ele>327.296875</ele>
        <time>2012-05-06T14:52:07Z</time>
      </trkpt>
      <trkpt lat="46.92224" lon="4.6404">
        <ele>330.296875</ele>
        <time>2012-05-06T14:52:17Z</time>
      </trkpt>
      <trkpt lat="46.92234" lon="4.64067">
        <ele>333.5</ele>
        <time>2012-05-06T14:52:27Z</time>
      </trkpt>
      <trkpt lat="46.92239" lon="4.6408">
        <ele>334.796875</ele>
        <time>2012-05-06T14:52:32Z</time>
      </trkpt>
      <trkpt lat="46.92246" lon="4.64091">
        <ele>336</ele>
        <time>2012-05-06T14:52:37Z</time>
      </trkpt>
      <trkpt lat="46.92252" lon="4.64103">
        <ele>337.296875</ele>
        <time>2012-05-06T14:52:42Z</time>
      </trkpt>
      <trkpt lat="46.92259" lon="4.64112">
        <ele>338.699219</ele>
        <time>2012-05-06T14:52:47Z</time>
      </trkpt>
      <trkpt lat="46.92282" lon="4.64142">
        <ele>343.5</ele>
        <time>2012-05-06T14:54:31Z</time>
      </trkpt>
      <trkpt lat="46.92322" lon="4.64186">
        <ele>349.898438</ele>
        <time>2012-05-06T14:55:00Z</time>
      </trkpt>
      <trkpt lat="46.9236" lon="4.6423">
        <ele>355.796875</ele>
        <time>2012-05-06T14:55:38Z</time>
      </trkpt>
      <trkpt lat="46.92366" lon="4.6424">
        <ele>356.097656</ele>
        <time>2012-05-06T14:55:44Z</time>
      </trkpt>
      <trkpt lat="46.92379" lon="4.6426">
        <ele>357.199219</ele>
        <time>2012-05-06T14:55:56Z</time>
      </trkpt>
      <trkpt lat="46.92388" lon="4.6427">
        <ele>357.898438</ele>
        <time>2012-05-06T14:56:02Z</time>
      </trkpt>
      <trkpt lat="46.92397" lon="4.64278">
        <ele>359.097656</ele>
        <time>2012-05-06T14:56:08Z</time>
      </trkpt>
      <trkpt lat="46.92403" lon="4.64291">
        <ele>358.898438</ele>
        <time>2012-05-06T14:56:14Z</time>
      </trkpt>
      <trkpt lat="46.92405" lon="4.64304">
        <ele>368.898438</ele>
        <time>2012-05-06T14:56:21Z</time>
      </trkpt>
      <trkpt lat="46.92404" lon="4.64319">
        <ele>365.398438</ele>
        <time>2012-05-06T14:57:16Z</time>
      </trkpt>
      <trkpt lat="46.924" lon="4.64332">
        <ele>362.796875</ele>
        <time>2012-05-06T14:57:23Z</time>
      </trkpt>
      <trkpt lat="46.92346" lon="4.64499">
        <ele>364.796875</ele>
        <time>2012-05-06T14:58:15Z</time>
      </trkpt>
      <trkpt lat="46.92345" lon="4.64512">
        <ele>365</ele>
        <time>2012-05-06T14:58:18Z</time>
      </trkpt>
      <trkpt lat="46.9234" lon="4.64556">
        <ele>366</ele>
        <time>2012-05-06T14:58:27Z</time>
      </trkpt>
      <trkpt lat="46.9234" lon="4.64573">
        <ele>367</ele>
        <time>2012-05-06T14:58:30Z</time>
      </trkpt>
      <trkpt lat="46.9234" lon="4.64608">
        <ele>367.199219</ele>
        <time>2012-05-06T14:58:36Z</time>
      </trkpt>
      <trkpt lat="46.92337" lon="4.64657">
        <ele>367.296875</ele>
        <time>2012-05-06T14:58:45Z</time>
      </trkpt>
      <trkpt lat="46.92335" lon="4.64672">
        <ele>366.699219</ele>
        <time>2012-05-06T14:58:49Z</time>
      </trkpt>
      <trkpt lat="46.92332" lon="4.64685">
        <ele>364.699219</ele>
        <time>2012-05-06T14:58:58Z</time>
      </trkpt>
      <trkpt lat="46.92325" lon="4.647">
        <ele>362</ele>
        <time>2012-05-06T14:59:02Z</time>
      </trkpt>
      <trkpt lat="46.92319" lon="4.64713">
        <ele>360</ele>
        <time>2012-05-06T14:59:05Z</time>
      </trkpt>
      <trkpt lat="46.92316" lon="4.64726">
        <ele>359.796875</ele>
        <time>2012-05-06T14:59:08Z</time>
      </trkpt>
      <trkpt lat="46.92317" lon="4.6474">
        <ele>360.296875</ele>
        <time>2012-05-06T14:59:11Z</time>
      </trkpt>
      <trkpt lat="46.92317" lon="4.64755">
        <ele>361.097656</ele>
        <time>2012-05-06T14:59:14Z</time>
      </trkpt>
      <trkpt lat="46.92317" lon="4.64828">
        <ele>361.699219</ele>
        <time>2012-05-06T14:59:30Z</time>
      </trkpt>
      <trkpt lat="46.92316" lon="4.64843">
        <ele>362.199219</ele>
        <time>2012-05-06T14:59:33Z</time>
      </trkpt>
      <trkpt lat="46.92311" lon="4.6489">
        <ele>363.398438</ele>
        <time>2012-05-06T14:59:42Z</time>
      </trkpt>
      <trkpt lat="46.92314" lon="4.64906">
        <ele>364.398438</ele>
        <time>2012-05-06T14:59:46Z</time>
      </trkpt>
      <trkpt lat="46.92323" lon="4.64908">
        <ele>366</ele>
        <time>2012-05-06T14:59:50Z</time>
      </trkpt>
      <trkpt lat="46.92333" lon="4.64908">
        <ele>368</ele>
        <time>2012-05-06T14:59:54Z</time>
      </trkpt>
      <trkpt lat="46.92341" lon="4.64916">
        <ele>369.398438</ele>
        <time>2012-05-06T14:59:58Z</time>
      </trkpt>
      <trkpt lat="46.92344" lon="4.64929">
        <ele>369.796875</ele>
        <time>2012-05-06T15:00:09Z</time>
      </trkpt>
      <trkpt lat="46.92343" lon="4.64944">
        <ele>370.296875</ele>
        <time>2012-05-06T15:00:13Z</time>
      </trkpt>
      <trkpt lat="46.92343" lon="4.65021">
        <ele>373.699219</ele>
        <time>2012-05-06T15:00:28Z</time>
      </trkpt>
      <trkpt lat="46.92341" lon="4.65034">
        <ele>383.597656</ele>
        <time>2012-05-06T15:00:31Z</time>
      </trkpt>
      <trkpt lat="46.92349" lon="4.65042">
        <ele>383.898438</ele>
        <time>2012-05-06T15:09:43Z</time>
      </trkpt>
      <trkpt lat="46.92356" lon="4.65053">
        <ele>384.296875</ele>
        <time>2012-05-06T15:09:50Z</time>
      </trkpt>
      <trkpt lat="46.92383" lon="4.65093">
        <ele>385.796875</ele>
        <time>2012-05-06T15:10:07Z</time>
      </trkpt>
      <trkpt lat="46.92389" lon="4.65106">
        <ele>386.097656</ele>
        <time>2012-05-06T15:10:12Z</time>
      </trkpt>
      <trkpt lat="46.92396" lon="4.65118">
        <ele>386.898438</ele>
        <time>2012-05-06T15:10:17Z</time>
      </trkpt>
      <trkpt lat="46.92424" lon="4.65164">
        <ele>387.699219</ele>
        <time>2012-05-06T15:10:36Z</time>
      </trkpt>
      <trkpt lat="46.92573" lon="4.65396">
        <ele>392</ele>
        <time>2012-05-06T15:12:09Z</time>
      </trkpt>
      <trkpt lat="46.9258" lon="4.65408">
        <ele>392.597656</ele>
        <time>2012-05-06T15:12:13Z</time>
      </trkpt>
      <trkpt lat="46.92588" lon="4.65415">
        <ele>392.796875</ele>
        <time>2012-05-06T15:12:18Z</time>
      </trkpt>
      <trkpt lat="46.92597" lon="4.65414">
        <ele>392.898438</ele>
        <time>2012-05-06T15:12:24Z</time>
      </trkpt>
      <trkpt lat="46.92678" lon="4.65406">
        <ele>392.097656</ele>
        <time>2012-05-06T15:12:48Z</time>
      </trkpt>
      <trkpt lat="46.9295" lon="4.65361">
        <ele>392.296875</ele>
        <time>2012-05-06T15:13:44Z</time>
      </trkpt>
      <trkpt lat="46.92959" lon="4.65358">
        <ele>392.398438</ele>
        <time>2012-05-06T15:13:46Z</time>
      </trkpt>
      <trkpt lat="46.92968" lon="4.65356">
        <ele>392.296875</ele>
        <time>2012-05-06T15:13:48Z</time>
      </trkpt>
      <trkpt lat="46.9298" lon="4.6535">
        <ele>392.199219</ele>
        <time>2012-05-06T15:13:51Z</time>
      </trkpt>
      <trkpt lat="46.9299" lon="4.65345">
        <ele>392.199219</ele>
        <time>2012-05-06T15:13:55Z</time>
      </trkpt>
      <trkpt lat="46.92998" lon="4.65337">
        <ele>392.097656</ele>
        <time>2012-05-06T15:13:59Z</time>
      </trkpt>
      <trkpt lat="46.93009" lon="4.65329">
        <ele>391.699219</ele>
        <time>2012-05-06T15:14:03Z</time>
      </trkpt>
      <trkpt lat="46.93019" lon="4.65323">
        <ele>391.199219</ele>
        <time>2012-05-06T15:14:06Z</time>
      </trkpt>
      <trkpt lat="46.93028" lon="4.6532">
        <ele>390.699219</ele>
        <time>2012-05-06T15:14:08Z</time>
      </trkpt>
      <trkpt lat="46.93039" lon="4.65319">
        <ele>390.199219</ele>
        <time>2012-05-06T15:14:10Z</time>
      </trkpt>
      <trkpt lat="46.9305" lon="4.6532">
        <ele>389.796875</ele>
        <time>2012-05-06T15:14:12Z</time>
      </trkpt>
      <trkpt lat="46.93062" lon="4.65322">
        <ele>389.296875</ele>
        <time>2012-05-06T15:14:14Z</time>
      </trkpt>
      <trkpt lat="46.93142" lon="4.65343">
        <ele>388.296875</ele>
        <time>2012-05-06T15:14:28Z</time>
      </trkpt>
      <trkpt lat="46.93184" lon="4.65355">
        <ele>388.597656</ele>
        <time>2012-05-06T15:14:36Z</time>
      </trkpt>
      <trkpt lat="46.93249" lon="4.65372">
        <ele>389.5</ele>
        <time>2012-05-06T15:14:53Z</time>
      </trkpt>
      <trkpt lat="46.93315" lon="4.65401">
        <ele>388.398438</ele>
        <time>2012-05-06T15:15:11Z</time>
      </trkpt>
      <trkpt lat="46.9332" lon="4.65413">
        <ele>389</ele>
        <time>2012-05-06T15:15:15Z</time>
      </trkpt>
      <trkpt lat="46.93317" lon="4.65428">
        <ele>389.796875</ele>
        <time>2012-05-06T15:15:20Z</time>
      </trkpt>
      <trkpt lat="46.93312" lon="4.65455">
        <ele>391.898438</ele>
        <time>2012-05-06T15:15:34Z</time>
      </trkpt>
      <trkpt lat="46.93308" lon="4.65468">
        <ele>392.699219</ele>
        <time>2012-05-06T15:15:44Z</time>
      </trkpt>
      <trkpt lat="46.93284" lon="4.65572">
        <ele>398.296875</ele>
        <time>2012-05-06T15:16:36Z</time>
      </trkpt>
      <trkpt lat="46.93283" lon="4.65585">
        <ele>399</ele>
        <time>2012-05-06T15:16:52Z</time>
      </trkpt>
      <trkpt lat="46.93279" lon="4.65599">
        <ele>399.699219</ele>
        <time>2012-05-06T15:17:00Z</time>
      </trkpt>
      <trkpt lat="46.93269" lon="4.65637">
        <ele>403.097656</ele>
        <time>2012-05-06T15:17:15Z</time>
      </trkpt>
      <trkpt lat="46.93256" lon="4.65677">
        <ele>403.199219</ele>
        <time>2012-05-06T15:17:34Z</time>
      </trkpt>
      <trkpt lat="46.93254" lon="4.65691">
        <ele>404.597656</ele>
        <time>2012-05-06T15:17:40Z</time>
      </trkpt>
      <trkpt lat="46.93251" lon="4.65706">
        <ele>406.199219</ele>
        <time>2012-05-06T15:17:46Z</time>
      </trkpt>
      <trkpt lat="46.9325" lon="4.6572">
        <ele>408.597656</ele>
        <time>2012-05-06T15:17:52Z</time>
      </trkpt>
      <trkpt lat="46.93246" lon="4.65733">
        <ele>410.5</ele>
        <time>2012-05-06T15:18:09Z</time>
      </trkpt>
      <trkpt lat="46.93228" lon="4.65786">
        <ele>415.398438</ele>
        <time>2012-05-06T15:18:38Z</time>
      </trkpt>
      <trkpt lat="46.93222" lon="4.65799">
        <ele>415.898438</ele>
        <time>2012-05-06T15:18:44Z</time>
      </trkpt>
      <trkpt lat="46.93216" lon="4.65809">
        <ele>416.796875</ele>
        <time>2012-05-06T15:18:49Z</time>
      </trkpt>
      <trkpt lat="46.93209" lon="4.65819">
        <ele>417.597656</ele>
        <time>2012-05-06T15:18:55Z</time>
      </trkpt>
      <trkpt lat="46.93199" lon="4.65826">
        <ele>418.296875</ele>
        <time>2012-05-06T15:19:01Z</time>
      </trkpt>
      <trkpt lat="46.93192" lon="4.65834">
        <ele>421.5</ele>
        <time>2012-05-06T15:19:06Z</time>
      </trkpt>
      <trkpt lat="46.93188" lon="4.65847">
        <ele>424.097656</ele>
        <time>2012-05-06T15:19:18Z</time>
      </trkpt>
      <trkpt lat="46.93189" lon="4.65861">
        <ele>425.597656</ele>
        <time>2012-05-06T15:19:29Z</time>
      </trkpt>
      <trkpt lat="46.93189" lon="4.65877">
        <ele>425.898438</ele>
        <time>2012-05-06T15:19:47Z</time>
      </trkpt>
      <trkpt lat="46.93188" lon="4.6589">
        <ele>428.5</ele>
        <time>2012-05-06T15:20:00Z</time>
      </trkpt>
      <trkpt lat="46.93186" lon="4.65904">
        <ele>429.296875</ele>
        <time>2012-05-06T15:20:17Z</time>
      </trkpt>
      <trkpt lat="46.93182" lon="4.65916">
        <ele>431.199219</ele>
        <time>2012-05-06T15:20:24Z</time>
      </trkpt>
      <trkpt lat="46.9318" lon="4.6593">
        <ele>432.699219</ele>
        <time>2012-05-06T15:20:32Z</time>
      </trkpt>
      <trkpt lat="46.93179" lon="4.65944">
        <ele>434.199219</ele>
        <time>2012-05-06T15:20:40Z</time>
      </trkpt>
      <trkpt lat="46.93176" lon="4.65957">
        <ele>436.296875</ele>
        <time>2012-05-06T15:20:47Z</time>
      </trkpt>
      <trkpt lat="46.93172" lon="4.65969">
        <ele>438.097656</ele>
        <time>2012-05-06T15:20:59Z</time>
      </trkpt>
      <trkpt lat="46.93167" lon="4.65982">
        <ele>440.398438</ele>
        <time>2012-05-06T15:21:09Z</time>
      </trkpt>
      <trkpt lat="46.93169" lon="4.65995">
        <ele>442.5</ele>
        <time>2012-05-06T15:21:19Z</time>
      </trkpt>
      <trkpt lat="46.93173" lon="4.66007">
        <ele>444.097656</ele>
        <time>2012-05-06T15:21:31Z</time>
      </trkpt>
      <trkpt lat="46.93184" lon="4.66029">
        <ele>446</ele>
        <time>2012-05-06T15:21:55Z</time>
      </trkpt>
      <trkpt lat="46.93187" lon="4.66042">
        <ele>447.796875</ele>
        <time>2012-05-06T15:22:03Z</time>
      </trkpt>
      <trkpt lat="46.93193" lon="4.66069">
        <ele>450.796875</ele>
        <time>2012-05-06T15:22:29Z</time>
      </trkpt>
      <trkpt lat="46.93194" lon="4.66083">
        <ele>452</ele>
        <time>2012-05-06T15:22:45Z</time>
      </trkpt>
      <trkpt lat="46.93196" lon="4.66099">
        <ele>453.597656</ele>
        <time>2012-05-06T15:22:50Z</time>
      </trkpt>
      <trkpt lat="46.93196" lon="4.66114">
        <ele>454.5</ele>
        <time>2012-05-06T15:22:54Z</time>
      </trkpt>
      <trkpt lat="46.93197" lon="4.66128">
        <ele>454.5</ele>
        <time>2012-05-06T15:22:59Z</time>
      </trkpt>
      <trkpt lat="46.93198" lon="4.66141">
        <ele>454.398438</ele>
        <time>2012-05-06T15:23:04Z</time>
      </trkpt>
      <trkpt lat="46.93199" lon="4.66155">
        <ele>454</ele>
        <time>2012-05-06T15:23:09Z</time>
      </trkpt>
      <trkpt lat="46.93198" lon="4.66185">
        <ele>452.5</ele>
        <time>2012-05-06T15:23:21Z</time>
      </trkpt>
      <trkpt lat="46.93197" lon="4.66201">
        <ele>451.699219</ele>
        <time>2012-05-06T15:23:26Z</time>
      </trkpt>
      <trkpt lat="46.93191" lon="4.66215">
        <ele>451.597656</ele>
        <time>2012-05-06T15:23:30Z</time>
      </trkpt>
      <trkpt lat="46.93174" lon="4.66255">
        <ele>450</ele>
        <time>2012-05-06T15:23:39Z</time>
      </trkpt>
      <trkpt lat="46.93166" lon="4.66266">
        <ele>450.398438</ele>
        <time>2012-05-06T15:23:42Z</time>
      </trkpt>
      <trkpt lat="46.93099" lon="4.66357">
        <ele>447.398438</ele>
        <time>2012-05-06T15:24:01Z</time>
      </trkpt>
      <trkpt lat="46.93083" lon="4.66376">
        <ele>447.199219</ele>
        <time>2012-05-06T15:24:05Z</time>
      </trkpt>
      <trkpt lat="46.93064" lon="4.66396">
        <ele>447.597656</ele>
        <time>2012-05-06T15:24:11Z</time>
      </trkpt>
      <trkpt lat="46.93045" lon="4.6641">
        <ele>448.398438</ele>
        <time>2012-05-06T15:24:17Z</time>
      </trkpt>
      <trkpt lat="46.93034" lon="4.66418">
        <ele>448.898438</ele>
        <time>2012-05-06T15:24:20Z</time>
      </trkpt>
      <trkpt lat="46.92999" lon="4.6644">
        <ele>450.597656</ele>
        <time>2012-05-06T15:24:29Z</time>
      </trkpt>
      <trkpt lat="46.92987" lon="4.66449">
        <ele>451.097656</ele>
        <time>2012-05-06T15:24:32Z</time>
      </trkpt>
      <trkpt lat="46.9298" lon="4.66457">
        <ele>451.398438</ele>
        <time>2012-05-06T15:24:34Z</time>
      </trkpt>
      <trkpt lat="46.92955" lon="4.66485">
        <ele>452.699219</ele>
        <time>2012-05-06T15:24:41Z</time>
      </trkpt>
      <trkpt lat="46.92945" lon="4.66498">
        <ele>452.796875</ele>
        <time>2012-05-06T15:24:44Z</time>
      </trkpt>
      <trkpt lat="46.92937" lon="4.66511">
        <ele>452.898438</ele>
        <time>2012-05-06T15:24:47Z</time>
      </trkpt>
      <trkpt lat="46.92931" lon="4.66523">
        <ele>453</ele>
        <time>2012-05-06T15:24:50Z</time>
      </trkpt>
      <trkpt lat="46.92924" lon="4.66533">
        <ele>453.097656</ele>
        <time>2012-05-06T15:24:54Z</time>
      </trkpt>
      <trkpt lat="46.92914" lon="4.66534">
        <ele>453.097656</ele>
        <time>2012-05-06T15:24:59Z</time>
      </trkpt>
      <trkpt lat="46.92904" lon="4.6654">
        <ele>452.796875</ele>
        <time>2012-05-06T15:25:05Z</time>
      </trkpt>
      <trkpt lat="46.92886" lon="4.66548">
        <ele>452.398438</ele>
        <time>2012-05-06T15:25:14Z</time>
      </trkpt>
      <trkpt lat="46.92877" lon="4.66554">
        <ele>452</ele>
        <time>2012-05-06T15:25:17Z</time>
      </trkpt>
      <trkpt lat="46.92766" lon="4.66614">
        <ele>449.097656</ele>
        <time>2012-05-06T15:25:40Z</time>
      </trkpt>
      <trkpt lat="46.92753" lon="4.66618">
        <ele>448.898438</ele>
        <time>2012-05-06T15:25:43Z</time>
      </trkpt>
      <trkpt lat="46.92739" lon="4.66616">
        <ele>448.5</ele>
        <time>2012-05-06T15:25:46Z</time>
      </trkpt>
      <trkpt lat="46.9273" lon="4.66613">
        <ele>448.097656</ele>
        <time>2012-05-06T15:25:48Z</time>
      </trkpt>
      <trkpt lat="46.92693" lon="4.66595">
        <ele>446</ele>
        <time>2012-05-06T15:25:56Z</time>
      </trkpt>
      <trkpt lat="46.92608" lon="4.66552">
        <ele>441.898438</ele>
        <time>2012-05-06T15:26:10Z</time>
      </trkpt>
      <trkpt lat="46.92596" lon="4.66545">
        <ele>441.796875</ele>
        <time>2012-05-06T15:26:12Z</time>
      </trkpt>
      <trkpt lat="46.92585" lon="4.66536">
        <ele>441.597656</ele>
        <time>2012-05-06T15:26:14Z</time>
      </trkpt>
      <trkpt lat="46.92576" lon="4.66526">
        <ele>441.398438</ele>
        <time>2012-05-06T15:26:16Z</time>
      </trkpt>
      <trkpt lat="46.92567" lon="4.66517">
        <ele>441.296875</ele>
        <time>2012-05-06T15:26:18Z</time>
      </trkpt>
      <trkpt lat="46.92558" lon="4.66511">
        <ele>441.597656</ele>
        <time>2012-05-06T15:26:20Z</time>
      </trkpt>
      <trkpt lat="46.92548" lon="4.66506">
        <ele>441.898438</ele>
        <time>2012-05-06T15:26:22Z</time>
      </trkpt>
      <trkpt lat="46.92537" lon="4.66503">
        <ele>442.398438</ele>
        <time>2012-05-06T15:26:24Z</time>
      </trkpt>
      <trkpt lat="46.92527" lon="4.665">
        <ele>442.796875</ele>
        <time>2012-05-06T15:26:26Z</time>
      </trkpt>
      <trkpt lat="46.92516" lon="4.665">
        <ele>443.699219</ele>
        <time>2012-05-06T15:26:28Z</time>
      </trkpt>
      <trkpt lat="46.92506" lon="4.66504">
        <ele>444.898438</ele>
        <time>2012-05-06T15:26:30Z</time>
      </trkpt>
      <trkpt lat="46.92495" lon="4.66513">
        <ele>446.097656</ele>
        <time>2012-05-06T15:26:33Z</time>
      </trkpt>
      <trkpt lat="46.92485" lon="4.66525">
        <ele>447.5</ele>
        <time>2012-05-06T15:26:36Z</time>
      </trkpt>
      <trkpt lat="46.92478" lon="4.66541">
        <ele>448.898438</ele>
        <time>2012-05-06T15:26:39Z</time>
      </trkpt>
      <trkpt lat="46.92472" lon="4.66557">
        <ele>450</ele>
        <time>2012-05-06T15:26:42Z</time>
      </trkpt>
      <trkpt lat="46.92468" lon="4.66572">
        <ele>450.796875</ele>
        <time>2012-05-06T15:26:45Z</time>
      </trkpt>
      <trkpt lat="46.92455" lon="4.66627">
        <ele>453</ele>
        <time>2012-05-06T15:26:57Z</time>
      </trkpt>
      <trkpt lat="46.92454" lon="4.66642">
        <ele>453.898438</ele>
        <time>2012-05-06T15:27:01Z</time>
      </trkpt>
      <trkpt lat="46.92451" lon="4.66654">
        <ele>454.796875</ele>
        <time>2012-05-06T15:27:05Z</time>
      </trkpt>
      <trkpt lat="46.92447" lon="4.66668">
        <ele>455.597656</ele>
        <time>2012-05-06T15:27:10Z</time>
      </trkpt>
      <trkpt lat="46.92441" lon="4.66682">
        <ele>456.398438</ele>
        <time>2012-05-06T15:27:15Z</time>
      </trkpt>
      <trkpt lat="46.92435" lon="4.66693">
        <ele>457.296875</ele>
        <time>2012-05-06T15:27:19Z</time>
      </trkpt>
      <trkpt lat="46.92402" lon="4.66758">
        <ele>462.796875</ele>
        <time>2012-05-06T15:27:43Z</time>
      </trkpt>
      <trkpt lat="46.92398" lon="4.6677">
        <ele>463.796875</ele>
        <time>2012-05-06T15:27:47Z</time>
      </trkpt>
      <trkpt lat="46.92394" lon="4.66783">
        <ele>464.699219</ele>
        <time>2012-05-06T15:27:51Z</time>
      </trkpt>
      <trkpt lat="46.92389" lon="4.66794">
        <ele>465.5</ele>
        <time>2012-05-06T15:27:55Z</time>
      </trkpt>
      <trkpt lat="46.92384" lon="4.66805">
        <ele>466.597656</ele>
        <time>2012-05-06T15:27:59Z</time>
      </trkpt>
      <trkpt lat="46.92377" lon="4.66814">
        <ele>468</ele>
        <time>2012-05-06T15:28:03Z</time>
      </trkpt>
      <trkpt lat="46.92368" lon="4.66819">
        <ele>469.699219</ele>
        <time>2012-05-06T15:28:07Z</time>
      </trkpt>
      <trkpt lat="46.92358" lon="4.66822">
        <ele>470.898438</ele>
        <time>2012-05-06T15:28:20Z</time>
      </trkpt>
      <trkpt lat="46.92347" lon="4.66823">
        <ele>471.796875</ele>
        <time>2012-05-06T15:28:25Z</time>
      </trkpt>
      <trkpt lat="46.92338" lon="4.66822">
        <ele>473</ele>
        <time>2012-05-06T15:28:29Z</time>
      </trkpt>
      <trkpt lat="46.92327" lon="4.66823">
        <ele>473.898438</ele>
        <time>2012-05-06T15:28:34Z</time>
      </trkpt>
      <trkpt lat="46.92318" lon="4.66826">
        <ele>474.898438</ele>
        <time>2012-05-06T15:28:38Z</time>
      </trkpt>
      <trkpt lat="46.9231" lon="4.66831">
        <ele>476</ele>
        <time>2012-05-06T15:28:42Z</time>
      </trkpt>
      <trkpt lat="46.92302" lon="4.66839">
        <ele>476.796875</ele>
        <time>2012-05-06T15:28:46Z</time>
      </trkpt>
      <trkpt lat="46.92296" lon="4.66849">
        <ele>477.699219</ele>
        <time>2012-05-06T15:28:50Z</time>
      </trkpt>
      <trkpt lat="46.92289" lon="4.66861">
        <ele>478.796875</ele>
        <time>2012-05-06T15:28:54Z</time>
      </trkpt>
      <trkpt lat="46.92283" lon="4.66874">
        <ele>479.597656</ele>
        <time>2012-05-06T15:28:58Z</time>
      </trkpt>
      <trkpt lat="46.92275" lon="4.66883">
        <ele>480.296875</ele>
        <time>2012-05-06T15:29:03Z</time>
      </trkpt>
      <trkpt lat="46.92266" lon="4.66888">
        <ele>481</ele>
        <time>2012-05-06T15:29:07Z</time>
      </trkpt>
      <trkpt lat="46.92256" lon="4.66887">
        <ele>481.699219</ele>
        <time>2012-05-06T15:29:11Z</time>
      </trkpt>
      <trkpt lat="46.92247" lon="4.66882">
        <ele>482.199219</ele>
        <time>2012-05-06T15:29:16Z</time>
      </trkpt>
      <trkpt lat="46.92229" lon="4.66872">
        <ele>482.699219</ele>
        <time>2012-05-06T15:29:28Z</time>
      </trkpt>
      <trkpt lat="46.92221" lon="4.66865">
        <ele>482.898438</ele>
        <time>2012-05-06T15:29:33Z</time>
      </trkpt>
      <trkpt lat="46.92205" lon="4.6685">
        <ele>483.597656</ele>
        <time>2012-05-06T15:29:41Z</time>
      </trkpt>
      <trkpt lat="46.9219" lon="4.66832">
        <ele>484.097656</ele>
        <time>2012-05-06T15:29:49Z</time>
      </trkpt>
      <trkpt lat="46.92183" lon="4.66822">
        <ele>483.898438</ele>
        <time>2012-05-06T15:29:53Z</time>
      </trkpt>
      <trkpt lat="46.92154" lon="4.66775">
        <ele>482.199219</ele>
        <time>2012-05-06T15:30:10Z</time>
      </trkpt>
      <trkpt lat="46.92145" lon="4.66765">
        <ele>482.097656</ele>
        <time>2012-05-06T15:30:13Z</time>
      </trkpt>
      <trkpt lat="46.92135" lon="4.66757">
        <ele>482</ele>
        <time>2012-05-06T15:30:16Z</time>
      </trkpt>
      <trkpt lat="46.92125" lon="4.66751">
        <ele>481.898438</ele>
        <time>2012-05-06T15:30:19Z</time>
      </trkpt>
      <trkpt lat="46.92101" lon="4.66738">
        <ele>481.898438</ele>
        <time>2012-05-06T15:30:25Z</time>
      </trkpt>
      <trkpt lat="46.92088" lon="4.66736">
        <ele>482.296875</ele>
        <time>2012-05-06T15:30:28Z</time>
      </trkpt>
      <trkpt lat="46.92075" lon="4.66736">
        <ele>482.898438</ele>
        <time>2012-05-06T15:30:31Z</time>
      </trkpt>
      <trkpt lat="46.92028" lon="4.66741">
        <ele>485.5</ele>
        <time>2012-05-06T15:30:43Z</time>
      </trkpt>
      <trkpt lat="46.9202" lon="4.66744">
        <ele>486.898438</ele>
        <time>2012-05-06T15:30:46Z</time>
      </trkpt>
      <trkpt lat="46.92012" lon="4.66755">
        <ele>489.097656</ele>
        <time>2012-05-06T15:30:51Z</time>
      </trkpt>
      <trkpt lat="46.92013" lon="4.66769">
        <ele>491.097656</ele>
        <time>2012-05-06T15:30:56Z</time>
      </trkpt>
      <trkpt lat="46.92015" lon="4.66783">
        <ele>492.699219</ele>
        <time>2012-05-06T15:31:01Z</time>
      </trkpt>
      <trkpt lat="46.92019" lon="4.66795">
        <ele>494.5</ele>
        <time>2012-05-06T15:31:05Z</time>
      </trkpt>
      <trkpt lat="46.92027" lon="4.66821">
        <ele>498</ele>
        <time>2012-05-06T15:31:13Z</time>
      </trkpt>
      <trkpt lat="46.92031" lon="4.66832">
        <ele>499.097656</ele>
        <time>2012-05-06T15:31:17Z</time>
      </trkpt>
      <trkpt lat="46.92045" lon="4.66868">
        <ele>502.398438</ele>
        <time>2012-05-06T15:31:39Z</time>
      </trkpt>
      <trkpt lat="46.92053" lon="4.66897">
        <ele>504.5</ele>
        <time>2012-05-06T15:31:49Z</time>
      </trkpt>
      <trkpt lat="46.9206" lon="4.66925">
        <ele>506.597656</ele>
        <time>2012-05-06T15:32:00Z</time>
      </trkpt>
      <trkpt lat="46.9206" lon="4.66939">
        <ele>508.5</ele>
        <time>2012-05-06T15:32:06Z</time>
      </trkpt>
      <trkpt lat="46.92055" lon="4.66952">
        <ele>509.597656</ele>
        <time>2012-05-06T15:32:12Z</time>
      </trkpt>
      <trkpt lat="46.9205" lon="4.66964">
        <ele>510.597656</ele>
        <time>2012-05-06T15:32:18Z</time>
      </trkpt>
      <trkpt lat="46.92044" lon="4.66976">
        <ele>512.398438</ele>
        <time>2012-05-06T15:32:25Z</time>
      </trkpt>
      <trkpt lat="46.92034" lon="4.66975">
        <ele>514.597656</ele>
        <time>2012-05-06T15:32:32Z</time>
      </trkpt>
      <trkpt lat="46.92025" lon="4.66969">
        <ele>516</ele>
        <time>2012-05-06T15:32:38Z</time>
      </trkpt>
      <trkpt lat="46.92015" lon="4.66968">
        <ele>517.296875</ele>
        <time>2012-05-06T15:32:44Z</time>
      </trkpt>
      <trkpt lat="46.92006" lon="4.66965">
        <ele>518.097656</ele>
        <time>2012-05-06T15:32:50Z</time>
      </trkpt>
      <trkpt lat="46.91997" lon="4.66961">
        <ele>518.097656</ele>
        <time>2012-05-06T15:32:57Z</time>
      </trkpt>
      <trkpt lat="46.91988" lon="4.66954">
        <ele>517.199219</ele>
        <time>2012-05-06T15:33:05Z</time>
      </trkpt>
      <trkpt lat="46.91972" lon="4.66941">
        <ele>517.398438</ele>
        <time>2012-05-06T15:34:28Z</time>
      </trkpt>
      <trkpt lat="46.91963" lon="4.66936">
        <ele>517.097656</ele>
        <time>2012-05-06T15:34:33Z</time>
      </trkpt>
      <trkpt lat="46.91955" lon="4.66929">
        <ele>516.5</ele>
        <time>2012-05-06T15:36:15Z</time>
      </trkpt>
      <trkpt lat="46.91947" lon="4.66923">
        <ele>514.398438</ele>
        <time>2012-05-06T15:36:19Z</time>
      </trkpt>
      <trkpt lat="46.91938" lon="4.66915">
        <ele>512.097656</ele>
        <time>2012-05-06T15:36:25Z</time>
      </trkpt>
      <trkpt lat="46.91931" lon="4.66905">
        <ele>509.898438</ele>
        <time>2012-05-06T15:36:30Z</time>
      </trkpt>
      <trkpt lat="46.91927" lon="4.66891">
        <ele>507.597656</ele>
        <time>2012-05-06T15:36:35Z</time>
      </trkpt>
      <trkpt lat="46.91927" lon="4.66876">
        <ele>505.097656</ele>
        <time>2012-05-06T15:36:40Z</time>
      </trkpt>
      <trkpt lat="46.91925" lon="4.66864">
        <ele>502.296875</ele>
        <time>2012-05-06T15:36:46Z</time>
      </trkpt>
      <trkpt lat="46.91919" lon="4.66849">
        <ele>499.796875</ele>
        <time>2012-05-06T15:37:06Z</time>
      </trkpt>
      <trkpt lat="46.91917" lon="4.66836">
        <ele>497.097656</ele>
        <time>2012-05-06T15:37:14Z</time>
      </trkpt>
      <trkpt lat="46.91914" lon="4.66823">
        <ele>494.199219</ele>
        <time>2012-05-06T15:37:18Z</time>
      </trkpt>
      <trkpt lat="46.91904" lon="4.66748">
        <ele>484</ele>
        <time>2012-05-06T15:37:29Z</time>
      </trkpt>
      <trkpt lat="46.91902" lon="4.66731">
        <ele>481.699219</ele>
        <time>2012-05-06T15:37:31Z</time>
      </trkpt>
      <trkpt lat="46.91895" lon="4.66691">
        <ele>478.296875</ele>
        <time>2012-05-06T15:37:35Z</time>
      </trkpt>
      <trkpt lat="46.91893" lon="4.66672">
        <ele>477.199219</ele>
        <time>2012-05-06T15:37:37Z</time>
      </trkpt>
      <trkpt lat="46.91894" lon="4.66652">
        <ele>476.398438</ele>
        <time>2012-05-06T15:37:39Z</time>
      </trkpt>
      <trkpt lat="46.91896" lon="4.66634">
        <ele>475.597656</ele>
        <time>2012-05-06T15:37:41Z</time>
      </trkpt>
      <trkpt lat="46.91896" lon="4.66616">
        <ele>475.097656</ele>
        <time>2012-05-06T15:37:43Z</time>
      </trkpt>
      <trkpt lat="46.91892" lon="4.66599">
        <ele>474.699219</ele>
        <time>2012-05-06T15:37:45Z</time>
      </trkpt>
      <trkpt lat="46.91888" lon="4.66583">
        <ele>474.296875</ele>
        <time>2012-05-06T15:37:47Z</time>
      </trkpt>
      <trkpt lat="46.9188" lon="4.66569">
        <ele>473.898438</ele>
        <time>2012-05-06T15:37:49Z</time>
      </trkpt>
      <trkpt lat="46.91871" lon="4.66556">
        <ele>473.796875</ele>
        <time>2012-05-06T15:37:51Z</time>
      </trkpt>
      <trkpt lat="46.91861" lon="4.66546">
        <ele>473.796875</ele>
        <time>2012-05-06T15:37:53Z</time>
      </trkpt>
      <trkpt lat="46.91851" lon="4.66537">
        <ele>473.796875</ele>
        <time>2012-05-06T15:37:55Z</time>
      </trkpt>
      <trkpt lat="46.9183" lon="4.66523">
        <ele>473.597656</ele>
        <time>2012-05-06T15:37:59Z</time>
      </trkpt>
      <trkpt lat="46.9182" lon="4.66513">
        <ele>473.199219</ele>
        <time>2012-05-06T15:38:01Z</time>
      </trkpt>
      <trkpt lat="46.91812" lon="4.66502">
        <ele>472.699219</ele>
        <time>2012-05-06T15:38:03Z</time>
      </trkpt>
      <trkpt lat="46.91804" lon="4.66489">
        <ele>471.796875</ele>
        <time>2012-05-06T15:38:05Z</time>
      </trkpt>
      <trkpt lat="46.91796" lon="4.66475">
        <ele>471</ele>
        <time>2012-05-06T15:38:07Z</time>
      </trkpt>
      <trkpt lat="46.91783" lon="4.66447">
        <ele>469.097656</ele>
        <time>2012-05-06T15:38:11Z</time>
      </trkpt>
      <trkpt lat="46.91748" lon="4.66364">
        <ele>463.796875</ele>
        <time>2012-05-06T15:38:23Z</time>
      </trkpt>
      <trkpt lat="46.91744" lon="4.66349">
        <ele>462.898438</ele>
        <time>2012-05-06T15:38:25Z</time>
      </trkpt>
      <trkpt lat="46.91739" lon="4.66333">
        <ele>462.199219</ele>
        <time>2012-05-06T15:38:27Z</time>
      </trkpt>
      <trkpt lat="46.91734" lon="4.6632">
        <ele>461.597656</ele>
        <time>2012-05-06T15:38:29Z</time>
      </trkpt>
      <trkpt lat="46.91728" lon="4.66306">
        <ele>461</ele>
        <time>2012-05-06T15:38:31Z</time>
      </trkpt>
      <trkpt lat="46.91714" lon="4.66277">
        <ele>459.597656</ele>
        <time>2012-05-06T15:38:35Z</time>
      </trkpt>
      <trkpt lat="46.91713" lon="4.66261">
        <ele>458.597656</ele>
        <time>2012-05-06T15:38:37Z</time>
      </trkpt>
      <trkpt lat="46.91717" lon="4.66245">
        <ele>457.597656</ele>
        <time>2012-05-06T15:38:39Z</time>
      </trkpt>
      <trkpt lat="46.91723" lon="4.66231">
        <ele>456.699219</ele>
        <time>2012-05-06T15:38:41Z</time>
      </trkpt>
      <trkpt lat="46.91752" lon="4.66151">
        <ele>452</ele>
        <time>2012-05-06T15:38:53Z</time>
      </trkpt>
      <trkpt lat="46.91757" lon="4.66138">
        <ele>451.398438</ele>
        <time>2012-05-06T15:38:55Z</time>
      </trkpt>
      <trkpt lat="46.91764" lon="4.6613">
        <ele>450.597656</ele>
        <time>2012-05-06T15:38:57Z</time>
      </trkpt>
      <trkpt lat="46.91773" lon="4.66124">
        <ele>449.5</ele>
        <time>2012-05-06T15:38:59Z</time>
      </trkpt>
      <trkpt lat="46.91782" lon="4.66116">
        <ele>448.398438</ele>
        <time>2012-05-06T15:39:01Z</time>
      </trkpt>
      <trkpt lat="46.91792" lon="4.6611">
        <ele>447.296875</ele>
        <time>2012-05-06T15:39:03Z</time>
      </trkpt>
      <trkpt lat="46.91836" lon="4.66087">
        <ele>443</ele>
        <time>2012-05-06T15:39:11Z</time>
      </trkpt>
      <trkpt lat="46.9185" lon="4.66083">
        <ele>442.398438</ele>
        <time>2012-05-06T15:39:13Z</time>
      </trkpt>
      <trkpt lat="46.91862" lon="4.6608">
        <ele>441.597656</ele>
        <time>2012-05-06T15:39:15Z</time>
      </trkpt>
      <trkpt lat="46.91873" lon="4.66076">
        <ele>440.097656</ele>
        <time>2012-05-06T15:39:17Z</time>
      </trkpt>
      <trkpt lat="46.91882" lon="4.66066">
        <ele>438.398438</ele>
        <time>2012-05-06T15:39:19Z</time>
      </trkpt>
      <trkpt lat="46.91889" lon="4.66054">
        <ele>436.898438</ele>
        <time>2012-05-06T15:39:21Z</time>
      </trkpt>
      <trkpt lat="46.91891" lon="4.6604">
        <ele>435.398438</ele>
        <time>2012-05-06T15:39:23Z</time>
      </trkpt>
      <trkpt lat="46.91888" lon="4.66027">
        <ele>434.097656</ele>
        <time>2012-05-06T15:39:25Z</time>
      </trkpt>
      <trkpt lat="46.9188" lon="4.66015">
        <ele>433.097656</ele>
        <time>2012-05-06T15:39:27Z</time>
      </trkpt>
      <trkpt lat="46.91872" lon="4.66006">
        <ele>432.199219</ele>
        <time>2012-05-06T15:39:29Z</time>
      </trkpt>
      <trkpt lat="46.91863" lon="4.66002">
        <ele>431</ele>
        <time>2012-05-06T15:39:31Z</time>
      </trkpt>
      <trkpt lat="46.91854" lon="4.65996">
        <ele>429.597656</ele>
        <time>2012-05-06T15:39:33Z</time>
      </trkpt>
      <trkpt lat="46.91845" lon="4.65986">
        <ele>428.296875</ele>
        <time>2012-05-06T15:39:35Z</time>
      </trkpt>
      <trkpt lat="46.91829" lon="4.65966">
        <ele>425.898438</ele>
        <time>2012-05-06T15:39:39Z</time>
      </trkpt>
      <trkpt lat="46.91821" lon="4.65956">
        <ele>424.296875</ele>
        <time>2012-05-06T15:39:41Z</time>
      </trkpt>
      <trkpt lat="46.91814" lon="4.65944">
        <ele>422.898438</ele>
        <time>2012-05-06T15:39:43Z</time>
      </trkpt>
      <trkpt lat="46.91809" lon="4.65929">
        <ele>421.699219</ele>
        <time>2012-05-06T15:39:45Z</time>
      </trkpt>
      <trkpt lat="46.91809" lon="4.6591">
        <ele>419.597656</ele>
        <time>2012-05-06T15:39:47Z</time>
      </trkpt>
      <trkpt lat="46.91811" lon="4.6589">
        <ele>417.796875</ele>
        <time>2012-05-06T15:39:49Z</time>
      </trkpt>
      <trkpt lat="46.91813" lon="4.65869">
        <ele>416.5</ele>
        <time>2012-05-06T15:39:51Z</time>
      </trkpt>
      <trkpt lat="46.91816" lon="4.65846">
        <ele>415</ele>
        <time>2012-05-06T15:39:53Z</time>
      </trkpt>
      <trkpt lat="46.91822" lon="4.65822">
        <ele>413.898438</ele>
        <time>2012-05-06T15:39:55Z</time>
      </trkpt>
      <trkpt lat="46.91832" lon="4.65786">
        <ele>412.796875</ele>
        <time>2012-05-06T15:39:58Z</time>
      </trkpt>
      <trkpt lat="46.91878" lon="4.65651">
        <ele>405.796875</ele>
        <time>2012-05-06T15:40:10Z</time>
      </trkpt>
      <trkpt lat="46.91879" lon="4.65634">
        <ele>404.898438</ele>
        <time>2012-05-06T15:40:13Z</time>
      </trkpt>
      <trkpt lat="46.91871" lon="4.6562">
        <ele>404.5</ele>
        <time>2012-05-06T15:40:16Z</time>
      </trkpt>
      <trkpt lat="46.91861" lon="4.65608">
        <ele>403.898438</ele>
        <time>2012-05-06T15:40:19Z</time>
      </trkpt>
      <trkpt lat="46.91851" lon="4.65596">
        <ele>403.199219</ele>
        <time>2012-05-06T15:40:22Z</time>
      </trkpt>
      <trkpt lat="46.91839" lon="4.65587">
        <ele>402.796875</ele>
        <time>2012-05-06T15:40:25Z</time>
      </trkpt>
      <trkpt lat="46.9183" lon="4.65581">
        <ele>402.097656</ele>
        <time>2012-05-06T15:40:27Z</time>
      </trkpt>
      <trkpt lat="46.91818" lon="4.65576">
        <ele>401.296875</ele>
        <time>2012-05-06T15:40:29Z</time>
      </trkpt>
      <trkpt lat="46.91805" lon="4.65576">
        <ele>400.097656</ele>
        <time>2012-05-06T15:40:31Z</time>
      </trkpt>
      <trkpt lat="46.91689" lon="4.65576">
        <ele>388.5</ele>
        <time>2012-05-06T15:40:45Z</time>
      </trkpt>
      <trkpt lat="46.91679" lon="4.65578">
        <ele>387.296875</ele>
        <time>2012-05-06T15:40:46Z</time>
      </trkpt>
      <trkpt lat="46.9167" lon="4.6558">
        <ele>386.296875</ele>
        <time>2012-05-06T15:40:47Z</time>
      </trkpt>
      <trkpt lat="46.91504" lon="4.65636">
        <ele>371.597656</ele>
        <time>2012-05-06T15:41:04Z</time>
      </trkpt>
      <trkpt lat="46.91494" lon="4.65641">
        <ele>370.097656</ele>
        <time>2012-05-06T15:41:05Z</time>
      </trkpt>
      <trkpt lat="46.91484" lon="4.65648">
        <ele>368.398438</ele>
        <time>2012-05-06T15:41:06Z</time>
      </trkpt>
      <trkpt lat="46.91433" lon="4.65682">
        <ele>360.199219</ele>
        <time>2012-05-06T15:41:11Z</time>
      </trkpt>
      <trkpt lat="46.91422" lon="4.65686">
        <ele>358.796875</ele>
        <time>2012-05-06T15:41:12Z</time>
      </trkpt>
      <trkpt lat="46.91412" lon="4.65688">
        <ele>357.199219</ele>
        <time>2012-05-06T15:41:13Z</time>
      </trkpt>
      <trkpt lat="46.91401" lon="4.65689">
        <ele>355.398438</ele>
        <time>2012-05-06T15:41:14Z</time>
      </trkpt>
      <trkpt lat="46.91389" lon="4.65689">
        <ele>353.597656</ele>
        <time>2012-05-06T15:41:15Z</time>
      </trkpt>
      <trkpt lat="46.91377" lon="4.65687">
        <ele>351.699219</ele>
        <time>2012-05-06T15:41:16Z</time>
      </trkpt>
      <trkpt lat="46.91354" lon="4.65682">
        <ele>348.5</ele>
        <time>2012-05-06T15:41:18Z</time>
      </trkpt>
      <trkpt lat="46.91334" lon="4.65676">
        <ele>345.898438</ele>
        <time>2012-05-06T15:41:20Z</time>
      </trkpt>
      <trkpt lat="46.91325" lon="4.65672">
        <ele>343.398438</ele>
        <time>2012-05-06T15:41:21Z</time>
      </trkpt>
      <trkpt lat="46.91309" lon="4.6566">
        <ele>342.097656</ele>
        <time>2012-05-06T15:41:23Z</time>
      </trkpt>
      <trkpt lat="46.913" lon="4.65656">
        <ele>340.796875</ele>
        <time>2012-05-06T15:41:24Z</time>
      </trkpt>
      <trkpt lat="46.91291" lon="4.65652">
        <ele>338.597656</ele>
        <time>2012-05-06T15:41:25Z</time>
      </trkpt>
      <trkpt lat="46.91274" lon="4.65647">
        <ele>336.5</ele>
        <time>2012-05-06T15:41:27Z</time>
      </trkpt>
      <trkpt lat="46.91247" lon="4.65642">
        <ele>332.5</ele>
        <time>2012-05-06T15:41:30Z</time>
      </trkpt>
      <trkpt lat="46.9123" lon="4.6564">
        <ele>329</ele>
        <time>2012-05-06T15:41:32Z</time>
      </trkpt>
      <trkpt lat="46.91216" lon="4.65647">
        <ele>325</ele>
        <time>2012-05-06T15:41:34Z</time>
      </trkpt>
      <trkpt lat="46.91204" lon="4.65665">
        <ele>321.5</ele>
        <time>2012-05-06T15:41:36Z</time>
      </trkpt>
      <trkpt lat="46.91189" lon="4.65678">
        <ele>319.398438</ele>
        <time>2012-05-06T15:41:38Z</time>
      </trkpt>
      <trkpt lat="46.91173" lon="4.65688">
        <ele>317.097656</ele>
        <time>2012-05-06T15:41:40Z</time>
      </trkpt>
      <trkpt lat="46.9116" lon="4.65702">
        <ele>315</ele>
        <time>2012-05-06T15:41:42Z</time>
      </trkpt>
      <trkpt lat="46.91147" lon="4.65707">
        <ele>312.597656</ele>
        <time>2012-05-06T15:41:44Z</time>
      </trkpt>
      <trkpt lat="46.91132" lon="4.657">
        <ele>310.398438</ele>
        <time>2012-05-06T15:41:46Z</time>
      </trkpt>
      <trkpt lat="46.91119" lon="4.65686">
        <ele>308.5</ele>
        <time>2012-05-06T15:41:48Z</time>
      </trkpt>
      <trkpt lat="46.91109" lon="4.65668">
        <ele>307.199219</ele>
        <time>2012-05-06T15:41:50Z</time>
      </trkpt>
      <trkpt lat="46.91095" lon="4.65643">
        <ele>305</ele>
        <time>2012-05-06T15:41:55Z</time>
      </trkpt>
      <trkpt lat="46.91095" lon="4.65624">
        <ele>303.597656</ele>
        <time>2012-05-06T15:41:58Z</time>
      </trkpt>
      <trkpt lat="46.91097" lon="4.65604">
        <ele>301</ele>
        <time>2012-05-06T15:42:00Z</time>
      </trkpt>
      <trkpt lat="46.91099" lon="4.6558">
        <ele>299.5</ele>
        <time>2012-05-06T15:42:02Z</time>
      </trkpt>
      <trkpt lat="46.91102" lon="4.65536">
        <ele>295.898438</ele>
        <time>2012-05-06T15:42:05Z</time>
      </trkpt>
      <trkpt lat="46.91104" lon="4.65522">
        <ele>295</ele>
        <time>2012-05-06T15:42:06Z</time>
      </trkpt>
      <trkpt lat="46.91111" lon="4.65486">
        <ele>291.296875</ele>
        <time>2012-05-06T15:42:09Z</time>
      </trkpt>
      <trkpt lat="46.91109" lon="4.65464">
        <ele>289.597656</ele>
        <time>2012-05-06T15:42:11Z</time>
      </trkpt>
      <trkpt lat="46.911" lon="4.65442">
        <ele>288.699219</ele>
        <time>2012-05-06T15:42:13Z</time>
      </trkpt>
      <trkpt lat="46.9109" lon="4.65426">
        <ele>287.296875</ele>
        <time>2012-05-06T15:42:15Z</time>
      </trkpt>
      <trkpt lat="46.91077" lon="4.65421">
        <ele>285.398438</ele>
        <time>2012-05-06T15:42:17Z</time>
      </trkpt>
      <trkpt lat="46.91061" lon="4.65418">
        <ele>283.898438</ele>
        <time>2012-05-06T15:42:19Z</time>
      </trkpt>
      <trkpt lat="46.91045" lon="4.65411">
        <ele>283</ele>
        <time>2012-05-06T15:42:21Z</time>
      </trkpt>
      <trkpt lat="46.90987" lon="4.65384">
        <ele>280.597656</ele>
        <time>2012-05-06T15:42:28Z</time>
      </trkpt>
      <trkpt lat="46.90975" lon="4.65382">
        <ele>279.199219</ele>
        <time>2012-05-06T15:42:30Z</time>
      </trkpt>
      <trkpt lat="46.9096" lon="4.65378">
        <ele>278</ele>
        <time>2012-05-06T15:42:32Z</time>
      </trkpt>
      <trkpt lat="46.90951" lon="4.65373">
        <ele>276.699219</ele>
        <time>2012-05-06T15:42:33Z</time>
      </trkpt>
      <trkpt lat="46.90925" lon="4.65359">
        <ele>272.796875</ele>
        <time>2012-05-06T15:42:36Z</time>
      </trkpt>
      <trkpt lat="46.90916" lon="4.65356">
        <ele>271.398438</ele>
        <time>2012-05-06T15:42:37Z</time>
      </trkpt>
      <trkpt lat="46.90887" lon="4.65349">
        <ele>266.699219</ele>
        <time>2012-05-06T15:42:40Z</time>
      </trkpt>
      <trkpt lat="46.90878" lon="4.65345">
        <ele>265.097656</ele>
        <time>2012-05-06T15:42:41Z</time>
      </trkpt>
      <trkpt lat="46.90868" lon="4.6534">
        <ele>263.597656</ele>
        <time>2012-05-06T15:42:42Z</time>
      </trkpt>
      <trkpt lat="46.90849" lon="4.65326">
        <ele>260.5</ele>
        <time>2012-05-06T15:42:44Z</time>
      </trkpt>
      <trkpt lat="46.90778" lon="4.65275">
        <ele>249.597656</ele>
        <time>2012-05-06T15:42:52Z</time>
      </trkpt>
      <trkpt lat="46.90768" lon="4.65271">
        <ele>248.296875</ele>
        <time>2012-05-06T15:42:53Z</time>
      </trkpt>
      <trkpt lat="46.9075" lon="4.65262">
        <ele>245.796875</ele>
        <time>2012-05-06T15:42:55Z</time>
      </trkpt>
      <trkpt lat="46.9074" lon="4.6526">
        <ele>244.398438</ele>
        <time>2012-05-06T15:42:56Z</time>
      </trkpt>
      <trkpt lat="46.9073" lon="4.65259">
        <ele>242.796875</ele>
        <time>2012-05-06T15:42:57Z</time>
      </trkpt>
      <trkpt lat="46.90686" lon="4.65255">
        <ele>235</ele>
        <time>2012-05-06T15:43:02Z</time>
      </trkpt>
      <trkpt lat="46.90676" lon="4.65264">
        <ele>232.5</ele>
        <time>2012-05-06T15:43:04Z</time>
      </trkpt>
      <trkpt lat="46.90666" lon="4.65278">
        <ele>230.5</ele>
        <time>2012-05-06T15:43:06Z</time>
      </trkpt>
      <trkpt lat="46.90654" lon="4.65289">
        <ele>230.597656</ele>
        <time>2012-05-06T15:43:08Z</time>
      </trkpt>
      <trkpt lat="46.90646" lon="4.65303">
        <ele>230.699219</ele>
        <time>2012-05-06T15:43:10Z</time>
      </trkpt>
      <trkpt lat="46.90638" lon="4.65317">
        <ele>230.898438</ele>
        <time>2012-05-06T15:43:12Z</time>
      </trkpt>
      <trkpt lat="46.90631" lon="4.65334">
        <ele>230.699219</ele>
        <time>2012-05-06T15:43:14Z</time>
      </trkpt>
      <trkpt lat="46.90627" lon="4.65353">
        <ele>230.296875</ele>
        <time>2012-05-06T15:43:16Z</time>
      </trkpt>
      <trkpt lat="46.90624" lon="4.65371">
        <ele>229.796875</ele>
        <time>2012-05-06T15:43:18Z</time>
      </trkpt>
      <trkpt lat="46.90619" lon="4.65382">
        <ele>229.398438</ele>
        <time>2012-05-06T15:43:20Z</time>
      </trkpt>
      <trkpt lat="46.90614" lon="4.654">
        <ele>229.296875</ele>
        <time>2012-05-06T15:43:23Z</time>
      </trkpt>
      <trkpt lat="46.90617" lon="4.65415">
        <ele>229.296875</ele>
        <time>2012-05-06T15:43:25Z</time>
      </trkpt>
      <trkpt lat="46.90619" lon="4.65432">
        <ele>229.296875</ele>
        <time>2012-05-06T15:43:27Z</time>
      </trkpt>
      <trkpt lat="46.90619" lon="4.65449">
        <ele>229.296875</ele>
        <time>2012-05-06T15:43:29Z</time>
      </trkpt>
      <trkpt lat="46.90616" lon="4.65467">
        <ele>229.5</ele>
        <time>2012-05-06T15:43:31Z</time>
      </trkpt>
      <trkpt lat="46.90611" lon="4.65482">
        <ele>229.5</ele>
        <time>2012-05-06T15:43:33Z</time>
      </trkpt>
      <trkpt lat="46.90604" lon="4.65497">
        <ele>229.5</ele>
        <time>2012-05-06T15:43:35Z</time>
      </trkpt>
      <trkpt lat="46.90578" lon="4.65555">
        <ele>229</ele>
        <time>2012-05-06T15:43:43Z</time>
      </trkpt>
      <trkpt lat="46.90539" lon="4.65649">
        <ele>226.296875</ele>
        <time>2012-05-06T15:43:55Z</time>
      </trkpt>
      <trkpt lat="46.90534" lon="4.65666">
        <ele>226.597656</ele>
        <time>2012-05-06T15:43:57Z</time>
      </trkpt>
      <trkpt lat="46.90527" lon="4.65681">
        <ele>227.097656</ele>
        <time>2012-05-06T15:43:59Z</time>
      </trkpt>
      <trkpt lat="46.90517" lon="4.65682">
        <ele>227.296875</ele>
        <time>2012-05-06T15:44:01Z</time>
      </trkpt>
      <trkpt lat="46.90509" lon="4.65677">
        <ele>227.097656</ele>
        <time>2012-05-06T15:44:03Z</time>
      </trkpt>
      <trkpt lat="46.90498" lon="4.65675">
        <ele>226.898438</ele>
        <time>2012-05-06T15:44:05Z</time>
      </trkpt>
      <trkpt lat="46.90487" lon="4.6568">
        <ele>226.796875</ele>
        <time>2012-05-06T15:44:07Z</time>
      </trkpt>
      <trkpt lat="46.90475" lon="4.65687">
        <ele>226.898438</ele>
        <time>2012-05-06T15:44:09Z</time>
      </trkpt>
      <trkpt lat="46.90452" lon="4.65705">
        <ele>227</ele>
        <time>2012-05-06T15:44:13Z</time>
      </trkpt>
      <trkpt lat="46.90274" lon="4.6583">
        <ele>228.398438</ele>
        <time>2012-05-06T15:44:41Z</time>
      </trkpt>
      <trkpt lat="46.90225" lon="4.65861">
        <ele>227.699219</ele>
        <time>2012-05-06T15:44:49Z</time>
      </trkpt>
      <trkpt lat="46.90213" lon="4.65872">
        <ele>227.597656</ele>
        <time>2012-05-06T15:44:51Z</time>
      </trkpt>
      <trkpt lat="46.90202" lon="4.65886">
        <ele>227.5</ele>
        <time>2012-05-06T15:44:53Z</time>
      </trkpt>
      <trkpt lat="46.90191" lon="4.65899">
        <ele>227.398438</ele>
        <time>2012-05-06T15:44:55Z</time>
      </trkpt>
      <trkpt lat="46.90181" lon="4.65914">
        <ele>227.296875</ele>
        <time>2012-05-06T15:44:57Z</time>
      </trkpt>
      <trkpt lat="46.90171" lon="4.65931">
        <ele>227.296875</ele>
        <time>2012-05-06T15:44:59Z</time>
      </trkpt>
      <trkpt lat="46.90162" lon="4.65948">
        <ele>227.199219</ele>
        <time>2012-05-06T15:45:01Z</time>
      </trkpt>
      <trkpt lat="46.90145" lon="4.65985">
        <ele>226.898438</ele>
        <time>2012-05-06T15:45:05Z</time>
      </trkpt>
      <trkpt lat="46.90031" lon="4.66229">
        <ele>226.796875</ele>
        <time>2012-05-06T15:45:29Z</time>
      </trkpt>
      <trkpt lat="46.90019" lon="4.66247">
        <ele>226.796875</ele>
        <time>2012-05-06T15:45:31Z</time>
      </trkpt>
      <trkpt lat="46.90007" lon="4.66264">
        <ele>226.796875</ele>
        <time>2012-05-06T15:45:33Z</time>
      </trkpt>
      <trkpt lat="46.89982" lon="4.66294">
        <ele>226.699219</ele>
        <time>2012-05-06T15:45:37Z</time>
      </trkpt>
      <trkpt lat="46.89864" lon="4.66428">
        <ele>226.796875</ele>
        <time>2012-05-06T15:45:57Z</time>
      </trkpt>
      <trkpt lat="46.89854" lon="4.66445">
        <ele>226.5</ele>
        <time>2012-05-06T15:45:59Z</time>
      </trkpt>
      <trkpt lat="46.89844" lon="4.66463">
        <ele>226</ele>
        <time>2012-05-06T15:46:01Z</time>
      </trkpt>
      <trkpt lat="46.89835" lon="4.66483">
        <ele>225.5</ele>
        <time>2012-05-06T15:46:03Z</time>
      </trkpt>
      <trkpt lat="46.89713" lon="4.66778">
        <ele>221.5</ele>
        <time>2012-05-06T15:46:28Z</time>
      </trkpt>
      <trkpt lat="46.89704" lon="4.66799">
        <ele>220.898438</ele>
        <time>2012-05-06T15:46:30Z</time>
      </trkpt>
      <trkpt lat="46.8968" lon="4.66845">
        <ele>222</ele>
        <time>2012-05-06T15:46:36Z</time>
      </trkpt>
      <trkpt lat="46.89675" lon="4.6686">
        <ele>222.5</ele>
        <time>2012-05-06T15:46:54Z</time>
      </trkpt>
      <trkpt lat="46.89673" lon="4.66874">
        <ele>222.5</ele>
        <time>2012-05-06T15:46:57Z</time>
      </trkpt>
      <trkpt lat="46.89671" lon="4.66889">
        <ele>222.097656</ele>
        <time>2012-05-06T15:47:00Z</time>
      </trkpt>
      <trkpt lat="46.8966" lon="4.66937">
        <ele>221.898438</ele>
        <time>2012-05-06T15:47:08Z</time>
      </trkpt>
      <trkpt lat="46.89659" lon="4.66952">
        <ele>221.597656</ele>
        <time>2012-05-06T15:47:10Z</time>
      </trkpt>
      <trkpt lat="46.89658" lon="4.67">
        <ele>216.296875</ele>
        <time>2012-05-06T15:47:16Z</time>
      </trkpt>
      <trkpt lat="46.89656" lon="4.67016">
        <ele>216.398438</ele>
        <time>2012-05-06T15:47:18Z</time>
      </trkpt>
      <trkpt lat="46.89652" lon="4.67033">
        <ele>216.699219</ele>
        <time>2012-05-06T15:47:20Z</time>
      </trkpt>
      <trkpt lat="46.89648" lon="4.67051">
        <ele>216.699219</ele>
        <time>2012-05-06T15:47:22Z</time>
      </trkpt>
      <trkpt lat="46.89642" lon="4.67068">
        <ele>217.5</ele>
        <time>2012-05-06T15:47:24Z</time>
      </trkpt>
      <trkpt lat="46.89635" lon="4.67084">
        <ele>218</ele>
        <time>2012-05-06T15:47:26Z</time>
      </trkpt>
      <trkpt lat="46.89628" lon="4.671">
        <ele>218.398438</ele>
        <time>2012-05-06T15:47:28Z</time>
      </trkpt>
      <trkpt lat="46.89611" lon="4.67131">
        <ele>218.796875</ele>
        <time>2012-05-06T15:47:32Z</time>
      </trkpt>
      <trkpt lat="46.89593" lon="4.6716">
        <ele>218.296875</ele>
        <time>2012-05-06T15:47:36Z</time>
      </trkpt>
      <trkpt lat="46.89427" lon="4.67411">
        <ele>219.199219</ele>
        <time>2012-05-06T15:48:21Z</time>
      </trkpt>
      <trkpt lat="46.89408" lon="4.67449">
        <ele>217.796875</ele>
        <time>2012-05-06T15:48:27Z</time>
      </trkpt>
      <trkpt lat="46.89373" lon="4.67519">
        <ele>217.296875</ele>
        <time>2012-05-06T15:48:35Z</time>
      </trkpt>
      <trkpt lat="46.89366" lon="4.67528">
        <ele>217.199219</ele>
        <time>2012-05-06T15:48:36Z</time>
      </trkpt>
      <trkpt lat="46.89282" lon="4.6765">
        <ele>216.898438</ele>
        <time>2012-05-06T15:48:50Z</time>
      </trkpt>
      <trkpt lat="46.89273" lon="4.67656">
        <ele>216.296875</ele>
        <time>2012-05-06T15:48:52Z</time>
      </trkpt>
      <trkpt lat="46.89264" lon="4.67651">
        <ele>216</ele>
        <time>2012-05-06T15:48:54Z</time>
      </trkpt>
      <trkpt lat="46.89256" lon="4.67642">
        <ele>215.699219</ele>
        <time>2012-05-06T15:48:56Z</time>
      </trkpt>
      <trkpt lat="46.89248" lon="4.67631">
        <ele>215.699219</ele>
        <time>2012-05-06T15:48:58Z</time>
      </trkpt>
      <trkpt lat="46.89201" lon="4.67567">
        <ele>217.5</ele>
        <time>2012-05-06T15:49:10Z</time>
      </trkpt>
      <trkpt lat="46.89186" lon="4.67542">
        <ele>218.398438</ele>
        <time>2012-05-06T15:49:15Z</time>
      </trkpt>
      <trkpt lat="46.89065" lon="4.67301">
        <ele>218.898438</ele>
        <time>2012-05-06T15:49:59Z</time>
      </trkpt>
      <trkpt lat="46.89041" lon="4.67242">
        <ele>218.898438</ele>
        <time>2012-05-06T15:50:10Z</time>
      </trkpt>
      <trkpt lat="46.88929" lon="4.66963">
        <ele>217.796875</ele>
        <time>2012-05-06T15:51:10Z</time>
      </trkpt>
      <trkpt lat="46.88752" lon="4.66594">
        <ele>218.199219</ele>
        <time>2012-05-06T15:52:57Z</time>
      </trkpt>
      <trkpt lat="46.88726" lon="4.66557">
        <ele>218.296875</ele>
        <time>2012-05-06T15:53:06Z</time>
      </trkpt>
      <trkpt lat="46.88689" lon="4.66508">
        <ele>218.199219</ele>
        <time>2012-05-06T15:53:18Z</time>
      </trkpt>
      <trkpt lat="46.88668" lon="4.66484">
        <ele>218.796875</ele>
        <time>2012-05-06T15:53:24Z</time>
      </trkpt>
      <trkpt lat="46.88615" lon="4.66429">
        <ele>220.898438</ele>
        <time>2012-05-06T15:53:38Z</time>
      </trkpt>
      <trkpt lat="46.88584" lon="4.66401">
        <ele>222.398438</ele>
        <time>2012-05-06T15:53:46Z</time>
      </trkpt>
      <trkpt lat="46.88567" lon="4.66388">
        <ele>222</ele>
        <time>2012-05-06T15:53:50Z</time>
      </trkpt>
      <trkpt lat="46.88235" lon="4.66148">
        <ele>223.597656</ele>
        <time>2012-05-06T15:55:09Z</time>
      </trkpt>
      <trkpt lat="46.88226" lon="4.66144">
        <ele>223.398438</ele>
        <time>2012-05-06T15:55:11Z</time>
      </trkpt>
      <trkpt lat="46.88217" lon="4.66146">
        <ele>223.097656</ele>
        <time>2012-05-06T15:55:13Z</time>
      </trkpt>
      <trkpt lat="46.88207" lon="4.66152">
        <ele>222.796875</ele>
        <time>2012-05-06T15:55:15Z</time>
      </trkpt>
      <trkpt lat="46.88162" lon="4.66184">
        <ele>221.199219</ele>
        <time>2012-05-06T15:55:25Z</time>
      </trkpt>
      <trkpt lat="46.88153" lon="4.66187">
        <ele>220.597656</ele>
        <time>2012-05-06T15:55:27Z</time>
      </trkpt>
      <trkpt lat="46.8814" lon="4.66185">
        <ele>220.398438</ele>
        <time>2012-05-06T15:55:30Z</time>
      </trkpt>
      <trkpt lat="46.88132" lon="4.6618">
        <ele>220.097656</ele>
        <time>2012-05-06T15:55:32Z</time>
      </trkpt>
      <trkpt lat="46.88123" lon="4.66174">
        <ele>220</ele>
        <time>2012-05-06T15:55:34Z</time>
      </trkpt>
      <trkpt lat="46.88115" lon="4.66168">
        <ele>220</ele>
        <time>2012-05-06T15:55:36Z</time>
      </trkpt>
      <trkpt lat="46.88088" lon="4.66146">
        <ele>220.898438</ele>
        <time>2012-05-06T15:55:43Z</time>
      </trkpt>
      <trkpt lat="46.88065" lon="4.66133">
        <ele>221.597656</ele>
        <time>2012-05-06T15:55:49Z</time>
      </trkpt>
      <trkpt lat="46.88055" lon="4.6613">
        <ele>221.597656</ele>
        <time>2012-05-06T15:55:52Z</time>
      </trkpt>
      <trkpt lat="46.88046" lon="4.66136">
        <ele>221.296875</ele>
        <time>2012-05-06T15:55:56Z</time>
      </trkpt>
      <trkpt lat="46.88038" lon="4.66146">
        <ele>220.5</ele>
        <time>2012-05-06T15:56:00Z</time>
      </trkpt>
      <trkpt lat="46.88031" lon="4.66158">
        <ele>220.597656</ele>
        <time>2012-05-06T15:56:05Z</time>
      </trkpt>
      <trkpt lat="46.88024" lon="4.66168">
        <ele>219.5</ele>
        <time>2012-05-06T15:56:11Z</time>
      </trkpt>
      <trkpt lat="46.8802" lon="4.66181">
        <ele>218</ele>
        <time>2012-05-06T15:56:18Z</time>
      </trkpt>
      <trkpt lat="46.88012" lon="4.66188">
        <ele>217.296875</ele>
        <time>2012-05-06T15:56:24Z</time>
      </trkpt>
      <trkpt lat="46.88006" lon="4.662">
        <ele>217.898438</ele>
        <time>2012-05-06T15:56:29Z</time>
      </trkpt>
      <trkpt lat="46.87997" lon="4.66208">
        <ele>218.398438</ele>
        <time>2012-05-06T15:56:33Z</time>
      </trkpt>
      <trkpt lat="46.87896" lon="4.6631">
        <ele>221.296875</ele>
        <time>2012-05-06T15:57:19Z</time>
      </trkpt>
      <trkpt lat="46.87888" lon="4.6632">
        <ele>221.699219</ele>
        <time>2012-05-06T15:57:23Z</time>
      </trkpt>
      <trkpt lat="46.87872" lon="4.66341">
        <ele>224.398438</ele>
        <time>2012-05-06T15:57:30Z</time>
      </trkpt>
      <trkpt lat="46.87862" lon="4.6635">
        <ele>225.398438</ele>
        <time>2012-05-06T15:57:34Z</time>
      </trkpt>
      <trkpt lat="46.87852" lon="4.66357">
        <ele>226</ele>
        <time>2012-05-06T15:57:38Z</time>
      </trkpt>
      <trkpt lat="46.87843" lon="4.66365">
        <ele>226.796875</ele>
        <time>2012-05-06T15:57:42Z</time>
      </trkpt>
      <trkpt lat="46.87797" lon="4.66408">
        <ele>230.597656</ele>
        <time>2012-05-06T15:58:02Z</time>
      </trkpt>
      <trkpt lat="46.87748" lon="4.66459">
        <ele>237.296875</ele>
        <time>2012-05-06T15:58:26Z</time>
      </trkpt>
      <trkpt lat="46.87725" lon="4.66487">
        <ele>239.199219</ele>
        <time>2012-05-06T15:58:38Z</time>
      </trkpt>
      <trkpt lat="46.87685" lon="4.66536">
        <ele>242.296875</ele>
        <time>2012-05-06T15:58:59Z</time>
      </trkpt>
      <trkpt lat="46.87679" lon="4.66547">
        <ele>242.898438</ele>
        <time>2012-05-06T15:59:03Z</time>
      </trkpt>
      <trkpt lat="46.87672" lon="4.66557">
        <ele>244.199219</ele>
        <time>2012-05-06T15:59:07Z</time>
      </trkpt>
      <trkpt lat="46.87656" lon="4.66577">
        <ele>246.898438</ele>
        <time>2012-05-06T15:59:15Z</time>
      </trkpt>
      <trkpt lat="46.8765" lon="4.66589">
        <ele>247.796875</ele>
        <time>2012-05-06T15:59:19Z</time>
      </trkpt>
      <trkpt lat="46.87625" lon="4.66642">
        <ele>252.398438</ele>
        <time>2012-05-06T15:59:35Z</time>
      </trkpt>
      <trkpt lat="46.8762" lon="4.66657">
        <ele>254.5</ele>
        <time>2012-05-06T15:59:39Z</time>
      </trkpt>
      <trkpt lat="46.87613" lon="4.66669">
        <ele>255.296875</ele>
        <time>2012-05-06T15:59:43Z</time>
      </trkpt>
      <trkpt lat="46.87607" lon="4.6668">
        <ele>256.699219</ele>
        <time>2012-05-06T15:59:47Z</time>
      </trkpt>
      <trkpt lat="46.87613" lon="4.66693">
        <ele>258.5</ele>
        <time>2012-05-06T15:59:52Z</time>
      </trkpt>
      <trkpt lat="46.87622" lon="4.66699">
        <ele>260.699219</ele>
        <time>2012-05-06T15:59:56Z</time>
      </trkpt>
      <trkpt lat="46.87632" lon="4.66704">
        <ele>262</ele>
        <time>2012-05-06T16:00:01Z</time>
      </trkpt>
    </trkseg>
  </trk>
</gpx>